<?xml version="1.0" encoding="UTF-8" standalone="no" ?>
<gpx xmlns="http://www.topografix.com/GPX/1/1" xmlns:xsi="http://www.w3.org/2001/XMLSchema-instance" xsi:schemaLocation="http://www.topografix.com/GPX/1/1 http://www.topografix.com/GPX/1/1/gpx.xsd" version="1.1" creator="VisuGPX - https://www.visugpx.com">
  <metadata>
    <name>Gardiole FRONTIGNAN 19 avr. 2022 </name>
    <desc><![CDATA[Marche en Gardiole fleurie avec 6 marcheurs frontignanais
Recherche du cromlech du Pioch de Roumanis]]></desc>
  </metadata>
  <trk>
    <name><![CDATA[19 avr. 2022 14:00:33]]></name>
    <trkseg>
      <trkpt lat="43.44885" lon="3.75143">
        <ele>51.77</ele>
        <time>2022-04-19T12:00:33Z</time>
      </trkpt>
      <trkpt lat="43.44885" lon="3.75143">
        <ele>51.65</ele>
        <time>2022-04-19T12:01:07Z</time>
      </trkpt>
      <trkpt lat="43.44886" lon="3.75145">
        <ele>51.11</ele>
        <time>2022-04-19T12:03:08Z</time>
      </trkpt>
      <trkpt lat="43.44886" lon="3.75145">
        <ele>51.12</ele>
        <time>2022-04-19T12:05:09Z</time>
      </trkpt>
      <trkpt lat="43.44895" lon="3.75139">
        <ele>50.08</ele>
        <time>2022-04-19T12:05:45Z</time>
      </trkpt>
      <trkpt lat="43.44899" lon="3.75127">
        <ele>49.9</ele>
        <time>2022-04-19T12:05:54Z</time>
      </trkpt>
      <trkpt lat="43.44905" lon="3.75116">
        <ele>50.85</ele>
        <time>2022-04-19T12:06:04Z</time>
      </trkpt>
      <trkpt lat="43.44911" lon="3.75107">
        <ele>51.64</ele>
        <time>2022-04-19T12:06:18Z</time>
      </trkpt>
      <trkpt lat="43.44918" lon="3.75097">
        <ele>52.06</ele>
        <time>2022-04-19T12:06:29Z</time>
      </trkpt>
      <trkpt lat="43.44923" lon="3.75087">
        <ele>51.75</ele>
        <time>2022-04-19T12:06:39Z</time>
      </trkpt>
      <trkpt lat="43.44929" lon="3.75076">
        <ele>52.11</ele>
        <time>2022-04-19T12:06:49Z</time>
      </trkpt>
      <trkpt lat="43.44936" lon="3.75066">
        <ele>52.79</ele>
        <time>2022-04-19T12:07:02Z</time>
      </trkpt>
      <trkpt lat="43.44942" lon="3.75057">
        <ele>52.51</ele>
        <time>2022-04-19T12:07:09Z</time>
      </trkpt>
      <trkpt lat="43.44949" lon="3.75047">
        <ele>52.56</ele>
        <time>2022-04-19T12:07:17Z</time>
      </trkpt>
      <trkpt lat="43.44954" lon="3.75037">
        <ele>52.56</ele>
        <time>2022-04-19T12:07:24Z</time>
      </trkpt>
      <trkpt lat="43.44961" lon="3.75029">
        <ele>53.58</ele>
        <time>2022-04-19T12:07:32Z</time>
      </trkpt>
      <trkpt lat="43.44968" lon="3.7502">
        <ele>53.98</ele>
        <time>2022-04-19T12:07:40Z</time>
      </trkpt>
      <trkpt lat="43.44975" lon="3.7501">
        <ele>54.88</ele>
        <time>2022-04-19T12:07:48Z</time>
      </trkpt>
      <trkpt lat="43.44981" lon="3.75">
        <ele>54.35</ele>
        <time>2022-04-19T12:07:56Z</time>
      </trkpt>
      <trkpt lat="43.44988" lon="3.74992">
        <ele>53.8</ele>
        <time>2022-04-19T12:08:04Z</time>
      </trkpt>
      <trkpt lat="43.44994" lon="3.74982">
        <ele>54.27</ele>
        <time>2022-04-19T12:08:12Z</time>
      </trkpt>
      <trkpt lat="43.45001" lon="3.74973">
        <ele>53.91</ele>
        <time>2022-04-19T12:08:20Z</time>
      </trkpt>
      <trkpt lat="43.45008" lon="3.74964">
        <ele>54.65</ele>
        <time>2022-04-19T12:08:28Z</time>
      </trkpt>
      <trkpt lat="43.45015" lon="3.74955">
        <ele>54.95</ele>
        <time>2022-04-19T12:08:36Z</time>
      </trkpt>
      <trkpt lat="43.45022" lon="3.74945">
        <ele>54.65</ele>
        <time>2022-04-19T12:08:44Z</time>
      </trkpt>
      <trkpt lat="43.45029" lon="3.74935">
        <ele>54.75</ele>
        <time>2022-04-19T12:08:52Z</time>
      </trkpt>
      <trkpt lat="43.45036" lon="3.74926">
        <ele>55.41</ele>
        <time>2022-04-19T12:09:00Z</time>
      </trkpt>
      <trkpt lat="43.45044" lon="3.74917">
        <ele>56.05</ele>
        <time>2022-04-19T12:09:08Z</time>
      </trkpt>
      <trkpt lat="43.45051" lon="3.74907">
        <ele>56.59</ele>
        <time>2022-04-19T12:09:16Z</time>
      </trkpt>
      <trkpt lat="43.45058" lon="3.74898">
        <ele>57.48</ele>
        <time>2022-04-19T12:09:25Z</time>
      </trkpt>
      <trkpt lat="43.45065" lon="3.7489">
        <ele>57.65</ele>
        <time>2022-04-19T12:09:33Z</time>
      </trkpt>
      <trkpt lat="43.45072" lon="3.74881">
        <ele>57.57</ele>
        <time>2022-04-19T12:09:40Z</time>
      </trkpt>
      <trkpt lat="43.45078" lon="3.74872">
        <ele>57.43</ele>
        <time>2022-04-19T12:09:48Z</time>
      </trkpt>
      <trkpt lat="43.45085" lon="3.74862">
        <ele>57.96</ele>
        <time>2022-04-19T12:09:57Z</time>
      </trkpt>
      <trkpt lat="43.45087" lon="3.7485">
        <ele>56.83</ele>
        <time>2022-04-19T12:10:06Z</time>
      </trkpt>
      <trkpt lat="43.45093" lon="3.7484">
        <ele>56.83</ele>
        <time>2022-04-19T12:10:14Z</time>
      </trkpt>
      <trkpt lat="43.45099" lon="3.74829">
        <ele>57.42</ele>
        <time>2022-04-19T12:10:22Z</time>
      </trkpt>
      <trkpt lat="43.45105" lon="3.74818">
        <ele>57.13</ele>
        <time>2022-04-19T12:10:30Z</time>
      </trkpt>
      <trkpt lat="43.4511" lon="3.74808">
        <ele>57.11</ele>
        <time>2022-04-19T12:10:38Z</time>
      </trkpt>
      <trkpt lat="43.45116" lon="3.74798">
        <ele>57.87</ele>
        <time>2022-04-19T12:10:46Z</time>
      </trkpt>
      <trkpt lat="43.45123" lon="3.74788">
        <ele>58.05</ele>
        <time>2022-04-19T12:10:54Z</time>
      </trkpt>
      <trkpt lat="43.45129" lon="3.74778">
        <ele>58.67</ele>
        <time>2022-04-19T12:11:03Z</time>
      </trkpt>
      <trkpt lat="43.45136" lon="3.74769">
        <ele>58.69</ele>
        <time>2022-04-19T12:11:11Z</time>
      </trkpt>
      <trkpt lat="43.45135" lon="3.74756">
        <ele>59.37</ele>
        <time>2022-04-19T12:11:21Z</time>
      </trkpt>
      <trkpt lat="43.45145" lon="3.74756">
        <ele>59.32</ele>
        <time>2022-04-19T12:11:38Z</time>
      </trkpt>
      <trkpt lat="43.45152" lon="3.74748">
        <ele>59.73</ele>
        <time>2022-04-19T12:11:45Z</time>
      </trkpt>
      <trkpt lat="43.45157" lon="3.74736">
        <ele>59.5</ele>
        <time>2022-04-19T12:11:52Z</time>
      </trkpt>
      <trkpt lat="43.45163" lon="3.74725">
        <ele>60.53</ele>
        <time>2022-04-19T12:11:59Z</time>
      </trkpt>
      <trkpt lat="43.45169" lon="3.74714">
        <ele>60.85</ele>
        <time>2022-04-19T12:12:06Z</time>
      </trkpt>
      <trkpt lat="43.45175" lon="3.74704">
        <ele>60.96</ele>
        <time>2022-04-19T12:12:12Z</time>
      </trkpt>
      <trkpt lat="43.45181" lon="3.74692">
        <ele>61.1</ele>
        <time>2022-04-19T12:12:19Z</time>
      </trkpt>
      <trkpt lat="43.45185" lon="3.7468">
        <ele>60.46</ele>
        <time>2022-04-19T12:12:26Z</time>
      </trkpt>
      <trkpt lat="43.4519" lon="3.74667">
        <ele>61.32</ele>
        <time>2022-04-19T12:12:33Z</time>
      </trkpt>
      <trkpt lat="43.45195" lon="3.74656">
        <ele>61.26</ele>
        <time>2022-04-19T12:12:42Z</time>
      </trkpt>
      <trkpt lat="43.45198" lon="3.74644">
        <ele>61.99</ele>
        <time>2022-04-19T12:12:48Z</time>
      </trkpt>
      <trkpt lat="43.45202" lon="3.74632">
        <ele>63.24</ele>
        <time>2022-04-19T12:12:54Z</time>
      </trkpt>
      <trkpt lat="43.45206" lon="3.74619">
        <ele>63.74</ele>
        <time>2022-04-19T12:13:01Z</time>
      </trkpt>
      <trkpt lat="43.4521" lon="3.74606">
        <ele>64.42</ele>
        <time>2022-04-19T12:13:09Z</time>
      </trkpt>
      <trkpt lat="43.45213" lon="3.74594">
        <ele>64.58</ele>
        <time>2022-04-19T12:13:16Z</time>
      </trkpt>
      <trkpt lat="43.45218" lon="3.74582">
        <ele>65.32</ele>
        <time>2022-04-19T12:13:23Z</time>
      </trkpt>
      <trkpt lat="43.45223" lon="3.74571">
        <ele>66.23</ele>
        <time>2022-04-19T12:13:31Z</time>
      </trkpt>
      <trkpt lat="43.45228" lon="3.7456">
        <ele>67.68</ele>
        <time>2022-04-19T12:13:41Z</time>
      </trkpt>
      <trkpt lat="43.45233" lon="3.7455">
        <ele>68.69</ele>
        <time>2022-04-19T12:13:50Z</time>
      </trkpt>
      <trkpt lat="43.45238" lon="3.74539">
        <ele>68.96</ele>
        <time>2022-04-19T12:13:59Z</time>
      </trkpt>
      <trkpt lat="43.45245" lon="3.74531">
        <ele>69.73</ele>
        <time>2022-04-19T12:14:07Z</time>
      </trkpt>
      <trkpt lat="43.4525" lon="3.7452">
        <ele>70.48</ele>
        <time>2022-04-19T12:14:16Z</time>
      </trkpt>
      <trkpt lat="43.45256" lon="3.74509">
        <ele>72.31</ele>
        <time>2022-04-19T12:14:25Z</time>
      </trkpt>
      <trkpt lat="43.45262" lon="3.74499">
        <ele>73.08</ele>
        <time>2022-04-19T12:14:34Z</time>
      </trkpt>
      <trkpt lat="43.45268" lon="3.7449">
        <ele>73.34</ele>
        <time>2022-04-19T12:14:44Z</time>
      </trkpt>
      <trkpt lat="43.45274" lon="3.74479">
        <ele>73.49</ele>
        <time>2022-04-19T12:14:53Z</time>
      </trkpt>
      <trkpt lat="43.45281" lon="3.7447">
        <ele>73.76</ele>
        <time>2022-04-19T12:15:02Z</time>
      </trkpt>
      <trkpt lat="43.45288" lon="3.74462">
        <ele>74.55</ele>
        <time>2022-04-19T12:15:11Z</time>
      </trkpt>
      <trkpt lat="43.45295" lon="3.74453">
        <ele>75.58</ele>
        <time>2022-04-19T12:15:20Z</time>
      </trkpt>
      <trkpt lat="43.45303" lon="3.74444">
        <ele>77.05</ele>
        <time>2022-04-19T12:15:29Z</time>
      </trkpt>
      <trkpt lat="43.45309" lon="3.74436">
        <ele>77.85</ele>
        <time>2022-04-19T12:15:38Z</time>
      </trkpt>
      <trkpt lat="43.45316" lon="3.74426">
        <ele>78.91</ele>
        <time>2022-04-19T12:15:47Z</time>
      </trkpt>
      <trkpt lat="43.45322" lon="3.74417">
        <ele>79.97</ele>
        <time>2022-04-19T12:15:55Z</time>
      </trkpt>
      <trkpt lat="43.45328" lon="3.74407">
        <ele>81.21</ele>
        <time>2022-04-19T12:16:04Z</time>
      </trkpt>
      <trkpt lat="43.45335" lon="3.74397">
        <ele>81.53</ele>
        <time>2022-04-19T12:16:12Z</time>
      </trkpt>
      <trkpt lat="43.45341" lon="3.74389">
        <ele>82.01</ele>
        <time>2022-04-19T12:16:20Z</time>
      </trkpt>
      <trkpt lat="43.45348" lon="3.74381">
        <ele>82.28</ele>
        <time>2022-04-19T12:16:28Z</time>
      </trkpt>
      <trkpt lat="43.45355" lon="3.74372">
        <ele>83.38</ele>
        <time>2022-04-19T12:16:36Z</time>
      </trkpt>
      <trkpt lat="43.45362" lon="3.74363">
        <ele>83.22</ele>
        <time>2022-04-19T12:16:44Z</time>
      </trkpt>
      <trkpt lat="43.45368" lon="3.74353">
        <ele>83.3</ele>
        <time>2022-04-19T12:16:52Z</time>
      </trkpt>
      <trkpt lat="43.45373" lon="3.74341">
        <ele>83.97</ele>
        <time>2022-04-19T12:17:00Z</time>
      </trkpt>
      <trkpt lat="43.45376" lon="3.74329">
        <ele>83.36</ele>
        <time>2022-04-19T12:17:08Z</time>
      </trkpt>
      <trkpt lat="43.45381" lon="3.74317">
        <ele>83.94</ele>
        <time>2022-04-19T12:17:16Z</time>
      </trkpt>
      <trkpt lat="43.45385" lon="3.74306">
        <ele>84.63</ele>
        <time>2022-04-19T12:17:24Z</time>
      </trkpt>
      <trkpt lat="43.45389" lon="3.74293">
        <ele>85.35</ele>
        <time>2022-04-19T12:17:32Z</time>
      </trkpt>
      <trkpt lat="43.45393" lon="3.74281">
        <ele>85.91</ele>
        <time>2022-04-19T12:17:40Z</time>
      </trkpt>
      <trkpt lat="43.45396" lon="3.74269">
        <ele>86.24</ele>
        <time>2022-04-19T12:17:48Z</time>
      </trkpt>
      <trkpt lat="43.45399" lon="3.74257">
        <ele>86.75</ele>
        <time>2022-04-19T12:17:56Z</time>
      </trkpt>
      <trkpt lat="43.45404" lon="3.74246">
        <ele>87.36</ele>
        <time>2022-04-19T12:18:04Z</time>
      </trkpt>
      <trkpt lat="43.4541" lon="3.74236">
        <ele>87.42</ele>
        <time>2022-04-19T12:18:12Z</time>
      </trkpt>
      <trkpt lat="43.45417" lon="3.74227">
        <ele>87.57</ele>
        <time>2022-04-19T12:18:20Z</time>
      </trkpt>
      <trkpt lat="43.45425" lon="3.74219">
        <ele>88.36</ele>
        <time>2022-04-19T12:18:28Z</time>
      </trkpt>
      <trkpt lat="43.45432" lon="3.74211">
        <ele>87.85</ele>
        <time>2022-04-19T12:18:36Z</time>
      </trkpt>
      <trkpt lat="43.45439" lon="3.74204">
        <ele>88.41</ele>
        <time>2022-04-19T12:18:44Z</time>
      </trkpt>
      <trkpt lat="43.45448" lon="3.74196">
        <ele>88.3</ele>
        <time>2022-04-19T12:18:53Z</time>
      </trkpt>
      <trkpt lat="43.45457" lon="3.74191">
        <ele>88.48</ele>
        <time>2022-04-19T12:19:01Z</time>
      </trkpt>
      <trkpt lat="43.45465" lon="3.74184">
        <ele>89.08</ele>
        <time>2022-04-19T12:19:09Z</time>
      </trkpt>
      <trkpt lat="43.45473" lon="3.74177">
        <ele>89.34</ele>
        <time>2022-04-19T12:19:17Z</time>
      </trkpt>
      <trkpt lat="43.45481" lon="3.7417">
        <ele>90.05</ele>
        <time>2022-04-19T12:19:25Z</time>
      </trkpt>
      <trkpt lat="43.45489" lon="3.74162">
        <ele>89.97</ele>
        <time>2022-04-19T12:19:33Z</time>
      </trkpt>
      <trkpt lat="43.45497" lon="3.74155">
        <ele>90.45</ele>
        <time>2022-04-19T12:19:41Z</time>
      </trkpt>
      <trkpt lat="43.45503" lon="3.74144">
        <ele>90.8</ele>
        <time>2022-04-19T12:19:49Z</time>
      </trkpt>
      <trkpt lat="43.45509" lon="3.74135">
        <ele>90.59</ele>
        <time>2022-04-19T12:19:57Z</time>
      </trkpt>
      <trkpt lat="43.45515" lon="3.74123">
        <ele>91.04</ele>
        <time>2022-04-19T12:20:06Z</time>
      </trkpt>
      <trkpt lat="43.45521" lon="3.74113">
        <ele>91.93</ele>
        <time>2022-04-19T12:20:14Z</time>
      </trkpt>
      <trkpt lat="43.45529" lon="3.74105">
        <ele>92.58</ele>
        <time>2022-04-19T12:20:22Z</time>
      </trkpt>
      <trkpt lat="43.45536" lon="3.74096">
        <ele>93.09</ele>
        <time>2022-04-19T12:20:30Z</time>
      </trkpt>
      <trkpt lat="43.45543" lon="3.74087">
        <ele>93.43</ele>
        <time>2022-04-19T12:20:38Z</time>
      </trkpt>
      <trkpt lat="43.4555" lon="3.74078">
        <ele>93.74</ele>
        <time>2022-04-19T12:20:46Z</time>
      </trkpt>
      <trkpt lat="43.45557" lon="3.74069">
        <ele>94.32</ele>
        <time>2022-04-19T12:20:54Z</time>
      </trkpt>
      <trkpt lat="43.45565" lon="3.74061">
        <ele>94.12</ele>
        <time>2022-04-19T12:21:02Z</time>
      </trkpt>
      <trkpt lat="43.45573" lon="3.74053">
        <ele>93.93</ele>
        <time>2022-04-19T12:21:10Z</time>
      </trkpt>
      <trkpt lat="43.45581" lon="3.74045">
        <ele>94.77</ele>
        <time>2022-04-19T12:21:18Z</time>
      </trkpt>
      <trkpt lat="43.45589" lon="3.74038">
        <ele>96.11</ele>
        <time>2022-04-19T12:21:26Z</time>
      </trkpt>
      <trkpt lat="43.45597" lon="3.74032">
        <ele>96.71</ele>
        <time>2022-04-19T12:21:34Z</time>
      </trkpt>
      <trkpt lat="43.45606" lon="3.74028">
        <ele>96.93</ele>
        <time>2022-04-19T12:21:42Z</time>
      </trkpt>
      <trkpt lat="43.45616" lon="3.74024">
        <ele>97.7</ele>
        <time>2022-04-19T12:21:50Z</time>
      </trkpt>
      <trkpt lat="43.45625" lon="3.74021">
        <ele>97.17</ele>
        <time>2022-04-19T12:21:58Z</time>
      </trkpt>
      <trkpt lat="43.45634" lon="3.74016">
        <ele>96.69</ele>
        <time>2022-04-19T12:22:05Z</time>
      </trkpt>
      <trkpt lat="43.45642" lon="3.74009">
        <ele>97.5</ele>
        <time>2022-04-19T12:22:13Z</time>
      </trkpt>
      <trkpt lat="43.45649" lon="3.74">
        <ele>98.1</ele>
        <time>2022-04-19T12:22:21Z</time>
      </trkpt>
      <trkpt lat="43.45656" lon="3.7399">
        <ele>98.46</ele>
        <time>2022-04-19T12:22:29Z</time>
      </trkpt>
      <trkpt lat="43.45663" lon="3.73981">
        <ele>98.51</ele>
        <time>2022-04-19T12:22:37Z</time>
      </trkpt>
      <trkpt lat="43.45671" lon="3.73972">
        <ele>98.52</ele>
        <time>2022-04-19T12:22:45Z</time>
      </trkpt>
      <trkpt lat="43.45679" lon="3.73963">
        <ele>98.62</ele>
        <time>2022-04-19T12:22:53Z</time>
      </trkpt>
      <trkpt lat="43.4568" lon="3.7395">
        <ele>99.88</ele>
        <time>2022-04-19T12:23:01Z</time>
      </trkpt>
      <trkpt lat="43.45673" lon="3.7394">
        <ele>100.61</ele>
        <time>2022-04-19T12:23:09Z</time>
      </trkpt>
      <trkpt lat="43.45666" lon="3.7393">
        <ele>101.53</ele>
        <time>2022-04-19T12:23:17Z</time>
      </trkpt>
      <trkpt lat="43.4566" lon="3.73921">
        <ele>101.85</ele>
        <time>2022-04-19T12:23:24Z</time>
      </trkpt>
      <trkpt lat="43.45653" lon="3.73912">
        <ele>101.71</ele>
        <time>2022-04-19T12:23:32Z</time>
      </trkpt>
      <trkpt lat="43.45646" lon="3.73903">
        <ele>101.55</ele>
        <time>2022-04-19T12:23:40Z</time>
      </trkpt>
      <trkpt lat="43.45638" lon="3.73895">
        <ele>102.58</ele>
        <time>2022-04-19T12:23:48Z</time>
      </trkpt>
      <trkpt lat="43.4563" lon="3.73889">
        <ele>102.05</ele>
        <time>2022-04-19T12:23:56Z</time>
      </trkpt>
      <trkpt lat="43.45621" lon="3.73887">
        <ele>101.37</ele>
        <time>2022-04-19T12:24:03Z</time>
      </trkpt>
      <trkpt lat="43.45611" lon="3.73885">
        <ele>101.49</ele>
        <time>2022-04-19T12:24:11Z</time>
      </trkpt>
      <trkpt lat="43.45602" lon="3.73878">
        <ele>101.24</ele>
        <time>2022-04-19T12:24:19Z</time>
      </trkpt>
      <trkpt lat="43.45597" lon="3.73867">
        <ele>101.19</ele>
        <time>2022-04-19T12:24:27Z</time>
      </trkpt>
      <trkpt lat="43.45593" lon="3.73854">
        <ele>100.29</ele>
        <time>2022-04-19T12:24:35Z</time>
      </trkpt>
      <trkpt lat="43.45589" lon="3.73841">
        <ele>100.39</ele>
        <time>2022-04-19T12:24:43Z</time>
      </trkpt>
      <trkpt lat="43.45586" lon="3.73829">
        <ele>99.95</ele>
        <time>2022-04-19T12:24:51Z</time>
      </trkpt>
      <trkpt lat="43.45582" lon="3.73816">
        <ele>100.46</ele>
        <time>2022-04-19T12:24:59Z</time>
      </trkpt>
      <trkpt lat="43.45578" lon="3.73803">
        <ele>100.79</ele>
        <time>2022-04-19T12:25:07Z</time>
      </trkpt>
      <trkpt lat="43.45574" lon="3.7379">
        <ele>100.8</ele>
        <time>2022-04-19T12:25:15Z</time>
      </trkpt>
      <trkpt lat="43.45568" lon="3.7378">
        <ele>101.49</ele>
        <time>2022-04-19T12:25:23Z</time>
      </trkpt>
      <trkpt lat="43.45562" lon="3.7377">
        <ele>101.39</ele>
        <time>2022-04-19T12:25:31Z</time>
      </trkpt>
      <trkpt lat="43.45556" lon="3.73759">
        <ele>102.12</ele>
        <time>2022-04-19T12:25:39Z</time>
      </trkpt>
      <trkpt lat="43.4555" lon="3.73749">
        <ele>100.77</ele>
        <time>2022-04-19T12:25:47Z</time>
      </trkpt>
      <trkpt lat="43.45544" lon="3.73738">
        <ele>100.58</ele>
        <time>2022-04-19T12:25:55Z</time>
      </trkpt>
      <trkpt lat="43.45538" lon="3.73728">
        <ele>100.83</ele>
        <time>2022-04-19T12:26:03Z</time>
      </trkpt>
      <trkpt lat="43.45533" lon="3.73716">
        <ele>100.69</ele>
        <time>2022-04-19T12:26:11Z</time>
      </trkpt>
      <trkpt lat="43.45528" lon="3.73705">
        <ele>101.18</ele>
        <time>2022-04-19T12:26:19Z</time>
      </trkpt>
      <trkpt lat="43.45522" lon="3.73693">
        <ele>100.89</ele>
        <time>2022-04-19T12:26:27Z</time>
      </trkpt>
      <trkpt lat="43.45517" lon="3.73682">
        <ele>100.84</ele>
        <time>2022-04-19T12:26:35Z</time>
      </trkpt>
      <trkpt lat="43.45511" lon="3.7367">
        <ele>100.53</ele>
        <time>2022-04-19T12:26:44Z</time>
      </trkpt>
      <trkpt lat="43.45506" lon="3.73659">
        <ele>100.47</ele>
        <time>2022-04-19T12:26:52Z</time>
      </trkpt>
      <trkpt lat="43.45501" lon="3.73648">
        <ele>99.39</ele>
        <time>2022-04-19T12:27:00Z</time>
      </trkpt>
      <trkpt lat="43.45495" lon="3.73637">
        <ele>98.92</ele>
        <time>2022-04-19T12:27:08Z</time>
      </trkpt>
      <trkpt lat="43.4549" lon="3.73626">
        <ele>97.62</ele>
        <time>2022-04-19T12:27:15Z</time>
      </trkpt>
      <trkpt lat="43.45484" lon="3.73615">
        <ele>96.52</ele>
        <time>2022-04-19T12:27:23Z</time>
      </trkpt>
      <trkpt lat="43.45478" lon="3.73605">
        <ele>95.76</ele>
        <time>2022-04-19T12:27:31Z</time>
      </trkpt>
      <trkpt lat="43.45472" lon="3.73595">
        <ele>95.2</ele>
        <time>2022-04-19T12:27:39Z</time>
      </trkpt>
      <trkpt lat="43.45466" lon="3.73585">
        <ele>95.06</ele>
        <time>2022-04-19T12:27:47Z</time>
      </trkpt>
      <trkpt lat="43.45459" lon="3.73576">
        <ele>93.59</ele>
        <time>2022-04-19T12:27:55Z</time>
      </trkpt>
      <trkpt lat="43.45452" lon="3.73567">
        <ele>93.09</ele>
        <time>2022-04-19T12:28:02Z</time>
      </trkpt>
      <trkpt lat="43.45446" lon="3.73557">
        <ele>90.84</ele>
        <time>2022-04-19T12:28:10Z</time>
      </trkpt>
      <trkpt lat="43.4544" lon="3.73546">
        <ele>89.46</ele>
        <time>2022-04-19T12:28:18Z</time>
      </trkpt>
      <trkpt lat="43.45433" lon="3.73536">
        <ele>87.75</ele>
        <time>2022-04-19T12:28:26Z</time>
      </trkpt>
      <trkpt lat="43.45426" lon="3.73527">
        <ele>86.86</ele>
        <time>2022-04-19T12:28:34Z</time>
      </trkpt>
      <trkpt lat="43.4542" lon="3.73517">
        <ele>85.45</ele>
        <time>2022-04-19T12:28:42Z</time>
      </trkpt>
      <trkpt lat="43.45413" lon="3.73507">
        <ele>83.34</ele>
        <time>2022-04-19T12:28:50Z</time>
      </trkpt>
      <trkpt lat="43.45406" lon="3.73498">
        <ele>82.24</ele>
        <time>2022-04-19T12:28:58Z</time>
      </trkpt>
      <trkpt lat="43.45398" lon="3.73489">
        <ele>82.18</ele>
        <time>2022-04-19T12:29:06Z</time>
      </trkpt>
      <trkpt lat="43.45391" lon="3.7348">
        <ele>81.82</ele>
        <time>2022-04-19T12:29:14Z</time>
      </trkpt>
      <trkpt lat="43.45385" lon="3.73469">
        <ele>81.27</ele>
        <time>2022-04-19T12:29:22Z</time>
      </trkpt>
      <trkpt lat="43.45379" lon="3.7346">
        <ele>80.92</ele>
        <time>2022-04-19T12:29:29Z</time>
      </trkpt>
      <trkpt lat="43.45372" lon="3.7345">
        <ele>81.38</ele>
        <time>2022-04-19T12:29:37Z</time>
      </trkpt>
      <trkpt lat="43.45365" lon="3.7344">
        <ele>79.9</ele>
        <time>2022-04-19T12:29:45Z</time>
      </trkpt>
      <trkpt lat="43.45358" lon="3.7343">
        <ele>78.56</ele>
        <time>2022-04-19T12:29:53Z</time>
      </trkpt>
      <trkpt lat="43.45352" lon="3.73421">
        <ele>78.65</ele>
        <time>2022-04-19T12:30:01Z</time>
      </trkpt>
      <trkpt lat="43.45345" lon="3.73412">
        <ele>77.48</ele>
        <time>2022-04-19T12:30:08Z</time>
      </trkpt>
      <trkpt lat="43.45338" lon="3.73404">
        <ele>77.53</ele>
        <time>2022-04-19T12:30:16Z</time>
      </trkpt>
      <trkpt lat="43.45331" lon="3.73394">
        <ele>77.72</ele>
        <time>2022-04-19T12:30:24Z</time>
      </trkpt>
      <trkpt lat="43.45323" lon="3.73385">
        <ele>77.66</ele>
        <time>2022-04-19T12:30:32Z</time>
      </trkpt>
      <trkpt lat="43.45315" lon="3.73378">
        <ele>77.32</ele>
        <time>2022-04-19T12:30:39Z</time>
      </trkpt>
      <trkpt lat="43.4531" lon="3.73369">
        <ele>77.08</ele>
        <time>2022-04-19T12:30:46Z</time>
      </trkpt>
      <trkpt lat="43.45304" lon="3.73357">
        <ele>77.75</ele>
        <time>2022-04-19T12:30:54Z</time>
      </trkpt>
      <trkpt lat="43.45298" lon="3.73346">
        <ele>78.07</ele>
        <time>2022-04-19T12:31:02Z</time>
      </trkpt>
      <trkpt lat="43.45295" lon="3.73333">
        <ele>78.13</ele>
        <time>2022-04-19T12:31:10Z</time>
      </trkpt>
      <trkpt lat="43.453" lon="3.73321">
        <ele>78.04</ele>
        <time>2022-04-19T12:31:18Z</time>
      </trkpt>
      <trkpt lat="43.45305" lon="3.73309">
        <ele>77.97</ele>
        <time>2022-04-19T12:31:26Z</time>
      </trkpt>
      <trkpt lat="43.45308" lon="3.73298">
        <ele>77.66</ele>
        <time>2022-04-19T12:31:34Z</time>
      </trkpt>
      <trkpt lat="43.45314" lon="3.73287">
        <ele>78.78</ele>
        <time>2022-04-19T12:31:42Z</time>
      </trkpt>
      <trkpt lat="43.45318" lon="3.73275">
        <ele>79.41</ele>
        <time>2022-04-19T12:31:50Z</time>
      </trkpt>
      <trkpt lat="43.45322" lon="3.73262">
        <ele>79.31</ele>
        <time>2022-04-19T12:31:58Z</time>
      </trkpt>
      <trkpt lat="43.45325" lon="3.7325">
        <ele>79.29</ele>
        <time>2022-04-19T12:32:07Z</time>
      </trkpt>
      <trkpt lat="43.45329" lon="3.73238">
        <ele>80.03</ele>
        <time>2022-04-19T12:32:15Z</time>
      </trkpt>
      <trkpt lat="43.45333" lon="3.73226">
        <ele>79.62</ele>
        <time>2022-04-19T12:32:23Z</time>
      </trkpt>
      <trkpt lat="43.45336" lon="3.73213">
        <ele>80.08</ele>
        <time>2022-04-19T12:32:32Z</time>
      </trkpt>
      <trkpt lat="43.4534" lon="3.73201">
        <ele>80.15</ele>
        <time>2022-04-19T12:32:40Z</time>
      </trkpt>
      <trkpt lat="43.45344" lon="3.73189">
        <ele>80.58</ele>
        <time>2022-04-19T12:32:48Z</time>
      </trkpt>
      <trkpt lat="43.45347" lon="3.73176">
        <ele>81.36</ele>
        <time>2022-04-19T12:32:57Z</time>
      </trkpt>
      <trkpt lat="43.4535" lon="3.73163">
        <ele>82.07</ele>
        <time>2022-04-19T12:33:06Z</time>
      </trkpt>
      <trkpt lat="43.45352" lon="3.73151">
        <ele>81.37</ele>
        <time>2022-04-19T12:33:14Z</time>
      </trkpt>
      <trkpt lat="43.45354" lon="3.73138">
        <ele>83.23</ele>
        <time>2022-04-19T12:33:23Z</time>
      </trkpt>
      <trkpt lat="43.45353" lon="3.73125">
        <ele>84.47</ele>
        <time>2022-04-19T12:33:32Z</time>
      </trkpt>
      <trkpt lat="43.45354" lon="3.73112">
        <ele>86.3</ele>
        <time>2022-04-19T12:33:41Z</time>
      </trkpt>
      <trkpt lat="43.45355" lon="3.731">
        <ele>87.49</ele>
        <time>2022-04-19T12:33:49Z</time>
      </trkpt>
      <trkpt lat="43.45358" lon="3.73088">
        <ele>88.21</ele>
        <time>2022-04-19T12:33:57Z</time>
      </trkpt>
      <trkpt lat="43.45363" lon="3.73076">
        <ele>88.85</ele>
        <time>2022-04-19T12:34:05Z</time>
      </trkpt>
      <trkpt lat="43.45369" lon="3.73065">
        <ele>90.52</ele>
        <time>2022-04-19T12:34:14Z</time>
      </trkpt>
      <trkpt lat="43.45375" lon="3.73054">
        <ele>90.96</ele>
        <time>2022-04-19T12:34:22Z</time>
      </trkpt>
      <trkpt lat="43.4538" lon="3.73043">
        <ele>90.04</ele>
        <time>2022-04-19T12:34:29Z</time>
      </trkpt>
      <trkpt lat="43.45385" lon="3.73031">
        <ele>90.42</ele>
        <time>2022-04-19T12:34:37Z</time>
      </trkpt>
      <trkpt lat="43.45388" lon="3.7302">
        <ele>91.58</ele>
        <time>2022-04-19T12:34:45Z</time>
      </trkpt>
      <trkpt lat="43.45392" lon="3.73007">
        <ele>92.81</ele>
        <time>2022-04-19T12:34:54Z</time>
      </trkpt>
      <trkpt lat="43.45394" lon="3.72995">
        <ele>94.17</ele>
        <time>2022-04-19T12:35:02Z</time>
      </trkpt>
      <trkpt lat="43.45397" lon="3.72982">
        <ele>94.96</ele>
        <time>2022-04-19T12:35:11Z</time>
      </trkpt>
      <trkpt lat="43.45399" lon="3.72968">
        <ele>95.47</ele>
        <time>2022-04-19T12:35:20Z</time>
      </trkpt>
      <trkpt lat="43.45402" lon="3.72956">
        <ele>95.35</ele>
        <time>2022-04-19T12:35:28Z</time>
      </trkpt>
      <trkpt lat="43.45404" lon="3.72943">
        <ele>95.65</ele>
        <time>2022-04-19T12:35:37Z</time>
      </trkpt>
      <trkpt lat="43.45406" lon="3.72931">
        <ele>94.95</ele>
        <time>2022-04-19T12:35:45Z</time>
      </trkpt>
      <trkpt lat="43.4541" lon="3.72919">
        <ele>93.96</ele>
        <time>2022-04-19T12:35:53Z</time>
      </trkpt>
      <trkpt lat="43.45415" lon="3.72908">
        <ele>93.16</ele>
        <time>2022-04-19T12:36:01Z</time>
      </trkpt>
      <trkpt lat="43.4542" lon="3.72896">
        <ele>93.38</ele>
        <time>2022-04-19T12:36:10Z</time>
      </trkpt>
      <trkpt lat="43.45425" lon="3.72885">
        <ele>93.11</ele>
        <time>2022-04-19T12:36:19Z</time>
      </trkpt>
      <trkpt lat="43.4543" lon="3.72874">
        <ele>93.16</ele>
        <time>2022-04-19T12:36:27Z</time>
      </trkpt>
      <trkpt lat="43.45434" lon="3.72862">
        <ele>93.98</ele>
        <time>2022-04-19T12:36:36Z</time>
      </trkpt>
      <trkpt lat="43.45436" lon="3.7285">
        <ele>94.25</ele>
        <time>2022-04-19T12:36:45Z</time>
      </trkpt>
      <trkpt lat="43.45439" lon="3.72838">
        <ele>94.42</ele>
        <time>2022-04-19T12:36:53Z</time>
      </trkpt>
      <trkpt lat="43.45443" lon="3.72827">
        <ele>95.11</ele>
        <time>2022-04-19T12:37:01Z</time>
      </trkpt>
      <trkpt lat="43.45447" lon="3.72814">
        <ele>95.3</ele>
        <time>2022-04-19T12:37:11Z</time>
      </trkpt>
      <trkpt lat="43.45448" lon="3.72801">
        <ele>95.82</ele>
        <time>2022-04-19T12:37:21Z</time>
      </trkpt>
      <trkpt lat="43.45449" lon="3.72788">
        <ele>96.06</ele>
        <time>2022-04-19T12:37:31Z</time>
      </trkpt>
      <trkpt lat="43.45452" lon="3.72775">
        <ele>95.73</ele>
        <time>2022-04-19T12:37:40Z</time>
      </trkpt>
      <trkpt lat="43.45455" lon="3.72763">
        <ele>96.15</ele>
        <time>2022-04-19T12:37:49Z</time>
      </trkpt>
      <trkpt lat="43.45459" lon="3.72751">
        <ele>96.58</ele>
        <time>2022-04-19T12:38:05Z</time>
      </trkpt>
      <trkpt lat="43.45463" lon="3.72739">
        <ele>96.81</ele>
        <time>2022-04-19T12:38:13Z</time>
      </trkpt>
      <trkpt lat="43.45469" lon="3.72728">
        <ele>96.33</ele>
        <time>2022-04-19T12:38:21Z</time>
      </trkpt>
      <trkpt lat="43.45474" lon="3.72718">
        <ele>96.44</ele>
        <time>2022-04-19T12:38:29Z</time>
      </trkpt>
      <trkpt lat="43.45478" lon="3.72706">
        <ele>96.26</ele>
        <time>2022-04-19T12:38:37Z</time>
      </trkpt>
      <trkpt lat="43.45482" lon="3.72695">
        <ele>96.4</ele>
        <time>2022-04-19T12:38:45Z</time>
      </trkpt>
      <trkpt lat="43.45485" lon="3.72683">
        <ele>96.58</ele>
        <time>2022-04-19T12:38:53Z</time>
      </trkpt>
      <trkpt lat="43.45487" lon="3.72671">
        <ele>96.18</ele>
        <time>2022-04-19T12:39:01Z</time>
      </trkpt>
      <trkpt lat="43.45489" lon="3.72658">
        <ele>96.57</ele>
        <time>2022-04-19T12:39:09Z</time>
      </trkpt>
      <trkpt lat="43.45491" lon="3.72645">
        <ele>96.7</ele>
        <time>2022-04-19T12:39:17Z</time>
      </trkpt>
      <trkpt lat="43.45494" lon="3.72633">
        <ele>96.48</ele>
        <time>2022-04-19T12:39:25Z</time>
      </trkpt>
      <trkpt lat="43.45497" lon="3.7262">
        <ele>96.6</ele>
        <time>2022-04-19T12:39:34Z</time>
      </trkpt>
      <trkpt lat="43.45496" lon="3.72608">
        <ele>97.82</ele>
        <time>2022-04-19T12:39:42Z</time>
      </trkpt>
      <trkpt lat="43.45493" lon="3.72596">
        <ele>98.16</ele>
        <time>2022-04-19T12:39:50Z</time>
      </trkpt>
      <trkpt lat="43.45489" lon="3.72583">
        <ele>99.12</ele>
        <time>2022-04-19T12:39:59Z</time>
      </trkpt>
      <trkpt lat="43.45486" lon="3.7257">
        <ele>99.74</ele>
        <time>2022-04-19T12:40:08Z</time>
      </trkpt>
      <trkpt lat="43.45483" lon="3.72557">
        <ele>99.75</ele>
        <time>2022-04-19T12:40:17Z</time>
      </trkpt>
      <trkpt lat="43.4548" lon="3.72545">
        <ele>99.96</ele>
        <time>2022-04-19T12:40:26Z</time>
      </trkpt>
      <trkpt lat="43.45478" lon="3.72533">
        <ele>100.34</ele>
        <time>2022-04-19T12:40:34Z</time>
      </trkpt>
      <trkpt lat="43.45478" lon="3.72519">
        <ele>101.61</ele>
        <time>2022-04-19T12:40:43Z</time>
      </trkpt>
      <trkpt lat="43.45479" lon="3.72506">
        <ele>101.55</ele>
        <time>2022-04-19T12:40:52Z</time>
      </trkpt>
      <trkpt lat="43.4548" lon="3.72494">
        <ele>101.08</ele>
        <time>2022-04-19T12:41:00Z</time>
      </trkpt>
      <trkpt lat="43.45485" lon="3.72483">
        <ele>101.49</ele>
        <time>2022-04-19T12:41:09Z</time>
      </trkpt>
      <trkpt lat="43.45488" lon="3.72471">
        <ele>102.26</ele>
        <time>2022-04-19T12:41:18Z</time>
      </trkpt>
      <trkpt lat="43.4549" lon="3.72458">
        <ele>103.5</ele>
        <time>2022-04-19T12:41:28Z</time>
      </trkpt>
      <trkpt lat="43.45489" lon="3.72444">
        <ele>105.06</ele>
        <time>2022-04-19T12:41:36Z</time>
      </trkpt>
      <trkpt lat="43.45494" lon="3.72432">
        <ele>105.64</ele>
        <time>2022-04-19T12:41:46Z</time>
      </trkpt>
      <trkpt lat="43.45495" lon="3.72419">
        <ele>105.04</ele>
        <time>2022-04-19T12:41:55Z</time>
      </trkpt>
      <trkpt lat="43.4549" lon="3.72407">
        <ele>104.96</ele>
        <time>2022-04-19T12:42:04Z</time>
      </trkpt>
      <trkpt lat="43.45482" lon="3.72399">
        <ele>104.16</ele>
        <time>2022-04-19T12:42:16Z</time>
      </trkpt>
      <trkpt lat="43.45476" lon="3.72388">
        <ele>104.18</ele>
        <time>2022-04-19T12:42:24Z</time>
      </trkpt>
      <trkpt lat="43.45471" lon="3.72378">
        <ele>104.14</ele>
        <time>2022-04-19T12:42:35Z</time>
      </trkpt>
      <trkpt lat="43.45467" lon="3.72366">
        <ele>103.2</ele>
        <time>2022-04-19T12:42:43Z</time>
      </trkpt>
      <trkpt lat="43.45464" lon="3.72353">
        <ele>102.7</ele>
        <time>2022-04-19T12:42:51Z</time>
      </trkpt>
      <trkpt lat="43.45461" lon="3.7234">
        <ele>102.43</ele>
        <time>2022-04-19T12:42:59Z</time>
      </trkpt>
      <trkpt lat="43.45459" lon="3.72327">
        <ele>102.62</ele>
        <time>2022-04-19T12:43:07Z</time>
      </trkpt>
      <trkpt lat="43.45457" lon="3.72314">
        <ele>102.86</ele>
        <time>2022-04-19T12:43:15Z</time>
      </trkpt>
      <trkpt lat="43.45455" lon="3.72301">
        <ele>102.17</ele>
        <time>2022-04-19T12:43:23Z</time>
      </trkpt>
      <trkpt lat="43.45453" lon="3.72288">
        <ele>102.25</ele>
        <time>2022-04-19T12:43:31Z</time>
      </trkpt>
      <trkpt lat="43.45451" lon="3.72276">
        <ele>102.36</ele>
        <time>2022-04-19T12:43:39Z</time>
      </trkpt>
      <trkpt lat="43.45448" lon="3.72263">
        <ele>103.06</ele>
        <time>2022-04-19T12:43:47Z</time>
      </trkpt>
      <trkpt lat="43.45446" lon="3.7225">
        <ele>103.43</ele>
        <time>2022-04-19T12:43:55Z</time>
      </trkpt>
      <trkpt lat="43.45444" lon="3.72237">
        <ele>103.97</ele>
        <time>2022-04-19T12:44:04Z</time>
      </trkpt>
      <trkpt lat="43.45443" lon="3.72224">
        <ele>104.69</ele>
        <time>2022-04-19T12:44:13Z</time>
      </trkpt>
      <trkpt lat="43.45443" lon="3.7221">
        <ele>104.68</ele>
        <time>2022-04-19T12:44:22Z</time>
      </trkpt>
      <trkpt lat="43.45446" lon="3.72197">
        <ele>106.02</ele>
        <time>2022-04-19T12:44:31Z</time>
      </trkpt>
      <trkpt lat="43.4545" lon="3.72186">
        <ele>106.62</ele>
        <time>2022-04-19T12:44:39Z</time>
      </trkpt>
      <trkpt lat="43.45456" lon="3.72176">
        <ele>106.74</ele>
        <time>2022-04-19T12:44:48Z</time>
      </trkpt>
      <trkpt lat="43.45461" lon="3.72165">
        <ele>108.11</ele>
        <time>2022-04-19T12:44:58Z</time>
      </trkpt>
      <trkpt lat="43.45464" lon="3.72153">
        <ele>108.2</ele>
        <time>2022-04-19T12:45:07Z</time>
      </trkpt>
      <trkpt lat="43.45463" lon="3.7214">
        <ele>108.97</ele>
        <time>2022-04-19T12:45:16Z</time>
      </trkpt>
      <trkpt lat="43.45462" lon="3.72126">
        <ele>109.78</ele>
        <time>2022-04-19T12:45:24Z</time>
      </trkpt>
      <trkpt lat="43.45458" lon="3.72115">
        <ele>109.6</ele>
        <time>2022-04-19T12:45:29Z</time>
      </trkpt>
      <trkpt lat="43.45463" lon="3.72103">
        <ele>110.04</ele>
        <time>2022-04-19T12:45:54Z</time>
      </trkpt>
      <trkpt lat="43.45466" lon="3.7209">
        <ele>111.15</ele>
        <time>2022-04-19T12:46:03Z</time>
      </trkpt>
      <trkpt lat="43.45469" lon="3.72078">
        <ele>111.66</ele>
        <time>2022-04-19T12:46:11Z</time>
      </trkpt>
      <trkpt lat="43.45471" lon="3.72064">
        <ele>113.56</ele>
        <time>2022-04-19T12:46:26Z</time>
      </trkpt>
      <trkpt lat="43.45475" lon="3.72053">
        <ele>114.75</ele>
        <time>2022-04-19T12:46:35Z</time>
      </trkpt>
      <trkpt lat="43.45479" lon="3.72041">
        <ele>117.18</ele>
        <time>2022-04-19T12:46:46Z</time>
      </trkpt>
      <trkpt lat="43.45483" lon="3.72028">
        <ele>117.97</ele>
        <time>2022-04-19T12:46:55Z</time>
      </trkpt>
      <trkpt lat="43.45481" lon="3.72015">
        <ele>118.84</ele>
        <time>2022-04-19T12:47:04Z</time>
      </trkpt>
      <trkpt lat="43.45482" lon="3.72002">
        <ele>119.84</ele>
        <time>2022-04-19T12:47:13Z</time>
      </trkpt>
      <trkpt lat="43.4548" lon="3.7199">
        <ele>121.15</ele>
        <time>2022-04-19T12:47:23Z</time>
      </trkpt>
      <trkpt lat="43.45473" lon="3.7198">
        <ele>121.61</ele>
        <time>2022-04-19T12:47:39Z</time>
      </trkpt>
      <trkpt lat="43.45464" lon="3.71975">
        <ele>120.11</ele>
        <time>2022-04-19T12:47:52Z</time>
      </trkpt>
      <trkpt lat="43.45455" lon="3.71974">
        <ele>118.96</ele>
        <time>2022-04-19T12:48:04Z</time>
      </trkpt>
      <trkpt lat="43.45446" lon="3.7197">
        <ele>117.24</ele>
        <time>2022-04-19T12:48:16Z</time>
      </trkpt>
      <trkpt lat="43.45437" lon="3.71965">
        <ele>116.61</ele>
        <time>2022-04-19T12:48:27Z</time>
      </trkpt>
      <trkpt lat="43.45429" lon="3.7196">
        <ele>115.2</ele>
        <time>2022-04-19T12:48:36Z</time>
      </trkpt>
      <trkpt lat="43.4542" lon="3.71955">
        <ele>114.69</ele>
        <time>2022-04-19T12:48:45Z</time>
      </trkpt>
      <trkpt lat="43.45412" lon="3.71949">
        <ele>113.39</ele>
        <time>2022-04-19T12:48:54Z</time>
      </trkpt>
      <trkpt lat="43.45404" lon="3.71942">
        <ele>112.95</ele>
        <time>2022-04-19T12:49:04Z</time>
      </trkpt>
      <trkpt lat="43.45397" lon="3.71933">
        <ele>112.69</ele>
        <time>2022-04-19T12:49:13Z</time>
      </trkpt>
      <trkpt lat="43.45393" lon="3.71921">
        <ele>112.55</ele>
        <time>2022-04-19T12:49:22Z</time>
      </trkpt>
      <trkpt lat="43.4539" lon="3.71908">
        <ele>113.03</ele>
        <time>2022-04-19T12:49:31Z</time>
      </trkpt>
      <trkpt lat="43.45387" lon="3.71897">
        <ele>112.41</ele>
        <time>2022-04-19T12:49:39Z</time>
      </trkpt>
      <trkpt lat="43.45382" lon="3.71886">
        <ele>111.33</ele>
        <time>2022-04-19T12:49:49Z</time>
      </trkpt>
      <trkpt lat="43.4538" lon="3.71873">
        <ele>110.45</ele>
        <time>2022-04-19T12:49:59Z</time>
      </trkpt>
      <trkpt lat="43.45379" lon="3.71861">
        <ele>109.57</ele>
        <time>2022-04-19T12:50:09Z</time>
      </trkpt>
      <trkpt lat="43.45381" lon="3.71849">
        <ele>109.12</ele>
        <time>2022-04-19T12:50:18Z</time>
      </trkpt>
      <trkpt lat="43.45386" lon="3.71837">
        <ele>109.14</ele>
        <time>2022-04-19T12:50:28Z</time>
      </trkpt>
      <trkpt lat="43.45388" lon="3.71824">
        <ele>108.85</ele>
        <time>2022-04-19T12:50:38Z</time>
      </trkpt>
      <trkpt lat="43.45388" lon="3.71811">
        <ele>107.56</ele>
        <time>2022-04-19T12:50:48Z</time>
      </trkpt>
      <trkpt lat="43.45384" lon="3.71799">
        <ele>109.23</ele>
        <time>2022-04-19T12:50:58Z</time>
      </trkpt>
      <trkpt lat="43.45386" lon="3.71785">
        <ele>110.6</ele>
        <time>2022-04-19T12:51:09Z</time>
      </trkpt>
      <trkpt lat="43.45391" lon="3.71775">
        <ele>110.92</ele>
        <time>2022-04-19T12:51:19Z</time>
      </trkpt>
      <trkpt lat="43.45396" lon="3.71764">
        <ele>111.53</ele>
        <time>2022-04-19T12:51:28Z</time>
      </trkpt>
      <trkpt lat="43.45402" lon="3.71754">
        <ele>112.43</ele>
        <time>2022-04-19T12:51:38Z</time>
      </trkpt>
      <trkpt lat="43.45408" lon="3.71744">
        <ele>112.29</ele>
        <time>2022-04-19T12:51:47Z</time>
      </trkpt>
      <trkpt lat="43.45412" lon="3.71733">
        <ele>113.24</ele>
        <time>2022-04-19T12:51:57Z</time>
      </trkpt>
      <trkpt lat="43.45417" lon="3.71722">
        <ele>114.45</ele>
        <time>2022-04-19T12:52:21Z</time>
      </trkpt>
      <trkpt lat="43.45422" lon="3.7171">
        <ele>115.86</ele>
        <time>2022-04-19T12:52:34Z</time>
      </trkpt>
      <trkpt lat="43.45428" lon="3.717">
        <ele>116.55</ele>
        <time>2022-04-19T12:52:42Z</time>
      </trkpt>
      <trkpt lat="43.45435" lon="3.71692">
        <ele>118.31</ele>
        <time>2022-04-19T12:52:51Z</time>
      </trkpt>
      <trkpt lat="43.45442" lon="3.71683">
        <ele>119.04</ele>
        <time>2022-04-19T12:53:00Z</time>
      </trkpt>
      <trkpt lat="43.4545" lon="3.71675">
        <ele>119.25</ele>
        <time>2022-04-19T12:53:09Z</time>
      </trkpt>
      <trkpt lat="43.45458" lon="3.71669">
        <ele>120.79</ele>
        <time>2022-04-19T12:53:18Z</time>
      </trkpt>
      <trkpt lat="43.45466" lon="3.71661">
        <ele>121.66</ele>
        <time>2022-04-19T12:53:27Z</time>
      </trkpt>
      <trkpt lat="43.45474" lon="3.71654">
        <ele>122.57</ele>
        <time>2022-04-19T12:53:35Z</time>
      </trkpt>
      <trkpt lat="43.45482" lon="3.71648">
        <ele>122.43</ele>
        <time>2022-04-19T12:53:56Z</time>
      </trkpt>
      <trkpt lat="43.4549" lon="3.71642">
        <ele>123.33</ele>
        <time>2022-04-19T12:54:04Z</time>
      </trkpt>
      <trkpt lat="43.45498" lon="3.71635">
        <ele>123.18</ele>
        <time>2022-04-19T12:54:11Z</time>
      </trkpt>
      <trkpt lat="43.45506" lon="3.71629">
        <ele>124.6</ele>
        <time>2022-04-19T12:54:19Z</time>
      </trkpt>
      <trkpt lat="43.45516" lon="3.71624">
        <ele>125.6</ele>
        <time>2022-04-19T12:54:27Z</time>
      </trkpt>
      <trkpt lat="43.45525" lon="3.71619">
        <ele>126.72</ele>
        <time>2022-04-19T12:54:35Z</time>
      </trkpt>
      <trkpt lat="43.45534" lon="3.71615">
        <ele>128.01</ele>
        <time>2022-04-19T12:54:43Z</time>
      </trkpt>
      <trkpt lat="43.45543" lon="3.71612">
        <ele>129.62</ele>
        <time>2022-04-19T12:54:51Z</time>
      </trkpt>
      <trkpt lat="43.45552" lon="3.71609">
        <ele>131.53</ele>
        <time>2022-04-19T12:54:59Z</time>
      </trkpt>
      <trkpt lat="43.45562" lon="3.71607">
        <ele>131.9</ele>
        <time>2022-04-19T12:55:08Z</time>
      </trkpt>
      <trkpt lat="43.45573" lon="3.71607">
        <ele>132.25</ele>
        <time>2022-04-19T12:55:18Z</time>
      </trkpt>
      <trkpt lat="43.45583" lon="3.71606">
        <ele>132.53</ele>
        <time>2022-04-19T12:55:28Z</time>
      </trkpt>
      <trkpt lat="43.45592" lon="3.71607">
        <ele>132.96</ele>
        <time>2022-04-19T12:55:36Z</time>
      </trkpt>
      <trkpt lat="43.45602" lon="3.71606">
        <ele>133.47</ele>
        <time>2022-04-19T12:55:45Z</time>
      </trkpt>
      <trkpt lat="43.45611" lon="3.71605">
        <ele>133.76</ele>
        <time>2022-04-19T12:55:54Z</time>
      </trkpt>
      <trkpt lat="43.4562" lon="3.71605">
        <ele>133.75</ele>
        <time>2022-04-19T12:56:03Z</time>
      </trkpt>
      <trkpt lat="43.4563" lon="3.71604">
        <ele>133.96</ele>
        <time>2022-04-19T12:56:13Z</time>
      </trkpt>
      <trkpt lat="43.4564" lon="3.71604">
        <ele>134.54</ele>
        <time>2022-04-19T12:56:23Z</time>
      </trkpt>
      <trkpt lat="43.45649" lon="3.71604">
        <ele>136.17</ele>
        <time>2022-04-19T12:56:33Z</time>
      </trkpt>
      <trkpt lat="43.45659" lon="3.71604">
        <ele>136.54</ele>
        <time>2022-04-19T12:56:42Z</time>
      </trkpt>
      <trkpt lat="43.45668" lon="3.71604">
        <ele>137.43</ele>
        <time>2022-04-19T12:56:51Z</time>
      </trkpt>
      <trkpt lat="43.45678" lon="3.71603">
        <ele>138.24</ele>
        <time>2022-04-19T12:57:01Z</time>
      </trkpt>
      <trkpt lat="43.45687" lon="3.71601">
        <ele>138.97</ele>
        <time>2022-04-19T12:57:10Z</time>
      </trkpt>
      <trkpt lat="43.45697" lon="3.71601">
        <ele>139.82</ele>
        <time>2022-04-19T12:57:19Z</time>
      </trkpt>
      <trkpt lat="43.45706" lon="3.71597">
        <ele>140.58</ele>
        <time>2022-04-19T12:57:29Z</time>
      </trkpt>
      <trkpt lat="43.45715" lon="3.71596">
        <ele>142.08</ele>
        <time>2022-04-19T12:57:39Z</time>
      </trkpt>
      <trkpt lat="43.45725" lon="3.71595">
        <ele>143.47</ele>
        <time>2022-04-19T12:57:49Z</time>
      </trkpt>
      <trkpt lat="43.45734" lon="3.71594">
        <ele>144.41</ele>
        <time>2022-04-19T12:57:58Z</time>
      </trkpt>
      <trkpt lat="43.45744" lon="3.71593">
        <ele>144.55</ele>
        <time>2022-04-19T12:58:06Z</time>
      </trkpt>
      <trkpt lat="43.45753" lon="3.71593">
        <ele>145.68</ele>
        <time>2022-04-19T12:58:15Z</time>
      </trkpt>
      <trkpt lat="43.45763" lon="3.71591">
        <ele>146.25</ele>
        <time>2022-04-19T12:58:25Z</time>
      </trkpt>
      <trkpt lat="43.45772" lon="3.7159">
        <ele>146.62</ele>
        <time>2022-04-19T12:58:38Z</time>
      </trkpt>
      <trkpt lat="43.45781" lon="3.71588">
        <ele>147.55</ele>
        <time>2022-04-19T12:58:48Z</time>
      </trkpt>
      <trkpt lat="43.45791" lon="3.71586">
        <ele>148.25</ele>
        <time>2022-04-19T12:58:57Z</time>
      </trkpt>
      <trkpt lat="43.458" lon="3.71584">
        <ele>148.92</ele>
        <time>2022-04-19T12:59:07Z</time>
      </trkpt>
      <trkpt lat="43.45809" lon="3.71582">
        <ele>149.77</ele>
        <time>2022-04-19T12:59:35Z</time>
      </trkpt>
      <trkpt lat="43.45818" lon="3.71579">
        <ele>150.43</ele>
        <time>2022-04-19T12:59:50Z</time>
      </trkpt>
      <trkpt lat="43.45828" lon="3.71578">
        <ele>151.01</ele>
        <time>2022-04-19T13:00:00Z</time>
      </trkpt>
      <trkpt lat="43.45836" lon="3.71584">
        <ele>150.92</ele>
        <time>2022-04-19T13:00:08Z</time>
      </trkpt>
      <trkpt lat="43.45845" lon="3.71588">
        <ele>151.06</ele>
        <time>2022-04-19T13:00:17Z</time>
      </trkpt>
      <trkpt lat="43.45854" lon="3.71591">
        <ele>152.7</ele>
        <time>2022-04-19T13:00:27Z</time>
      </trkpt>
      <trkpt lat="43.45863" lon="3.71588">
        <ele>154.02</ele>
        <time>2022-04-19T13:00:37Z</time>
      </trkpt>
      <trkpt lat="43.45872" lon="3.71593">
        <ele>154.54</ele>
        <time>2022-04-19T13:00:47Z</time>
      </trkpt>
      <trkpt lat="43.45882" lon="3.71595">
        <ele>155.04</ele>
        <time>2022-04-19T13:00:58Z</time>
      </trkpt>
      <trkpt lat="43.45891" lon="3.71597">
        <ele>156.74</ele>
        <time>2022-04-19T13:01:09Z</time>
      </trkpt>
      <trkpt lat="43.45901" lon="3.71596">
        <ele>157.91</ele>
        <time>2022-04-19T13:01:20Z</time>
      </trkpt>
      <trkpt lat="43.45905" lon="3.71596">
        <ele>157.41</ele>
        <time>2022-04-19T13:03:21Z</time>
      </trkpt>
      <trkpt lat="43.45914" lon="3.71599">
        <ele>158.05</ele>
        <time>2022-04-19T13:04:45Z</time>
      </trkpt>
      <trkpt lat="43.45924" lon="3.71599">
        <ele>159.63</ele>
        <time>2022-04-19T13:04:54Z</time>
      </trkpt>
      <trkpt lat="43.45934" lon="3.71603">
        <ele>160.59</ele>
        <time>2022-04-19T13:05:04Z</time>
      </trkpt>
      <trkpt lat="43.45942" lon="3.7161">
        <ele>160.81</ele>
        <time>2022-04-19T13:05:13Z</time>
      </trkpt>
      <trkpt lat="43.45951" lon="3.71613">
        <ele>161.16</ele>
        <time>2022-04-19T13:05:48Z</time>
      </trkpt>
      <trkpt lat="43.45961" lon="3.71614">
        <ele>162.87</ele>
        <time>2022-04-19T13:06:06Z</time>
      </trkpt>
      <trkpt lat="43.4597" lon="3.71614">
        <ele>163.63</ele>
        <time>2022-04-19T13:06:24Z</time>
      </trkpt>
      <trkpt lat="43.4598" lon="3.71615">
        <ele>163.93</ele>
        <time>2022-04-19T13:06:36Z</time>
      </trkpt>
      <trkpt lat="43.45989" lon="3.71618">
        <ele>165.16</ele>
        <time>2022-04-19T13:06:45Z</time>
      </trkpt>
      <trkpt lat="43.45998" lon="3.71622">
        <ele>166.09</ele>
        <time>2022-04-19T13:07:01Z</time>
      </trkpt>
      <trkpt lat="43.46004" lon="3.71613">
        <ele>166.06</ele>
        <time>2022-04-19T13:07:22Z</time>
      </trkpt>
      <trkpt lat="43.46002" lon="3.71601">
        <ele>167.07</ele>
        <time>2022-04-19T13:07:31Z</time>
      </trkpt>
      <trkpt lat="43.45999" lon="3.71588">
        <ele>167.54</ele>
        <time>2022-04-19T13:07:40Z</time>
      </trkpt>
      <trkpt lat="43.45996" lon="3.71576">
        <ele>168.78</ele>
        <time>2022-04-19T13:07:49Z</time>
      </trkpt>
      <trkpt lat="43.4599" lon="3.71565">
        <ele>169.49</ele>
        <time>2022-04-19T13:07:58Z</time>
      </trkpt>
      <trkpt lat="43.45985" lon="3.71553">
        <ele>170.39</ele>
        <time>2022-04-19T13:08:07Z</time>
      </trkpt>
      <trkpt lat="43.4598" lon="3.71542">
        <ele>170.67</ele>
        <time>2022-04-19T13:08:16Z</time>
      </trkpt>
      <trkpt lat="43.45975" lon="3.7153">
        <ele>171.71</ele>
        <time>2022-04-19T13:08:25Z</time>
      </trkpt>
      <trkpt lat="43.45973" lon="3.71516">
        <ele>172.51</ele>
        <time>2022-04-19T13:08:34Z</time>
      </trkpt>
      <trkpt lat="43.45973" lon="3.71503">
        <ele>173.06</ele>
        <time>2022-04-19T13:08:43Z</time>
      </trkpt>
      <trkpt lat="43.45974" lon="3.71489">
        <ele>173.68</ele>
        <time>2022-04-19T13:08:52Z</time>
      </trkpt>
      <trkpt lat="43.45973" lon="3.71476">
        <ele>174.66</ele>
        <time>2022-04-19T13:09:01Z</time>
      </trkpt>
      <trkpt lat="43.45972" lon="3.71462">
        <ele>175.46</ele>
        <time>2022-04-19T13:09:10Z</time>
      </trkpt>
      <trkpt lat="43.4597" lon="3.71449">
        <ele>175.89</ele>
        <time>2022-04-19T13:09:19Z</time>
      </trkpt>
      <trkpt lat="43.45966" lon="3.71437">
        <ele>176.79</ele>
        <time>2022-04-19T13:09:28Z</time>
      </trkpt>
      <trkpt lat="43.45961" lon="3.71427">
        <ele>177.58</ele>
        <time>2022-04-19T13:09:37Z</time>
      </trkpt>
      <trkpt lat="43.45954" lon="3.71417">
        <ele>177.65</ele>
        <time>2022-04-19T13:09:46Z</time>
      </trkpt>
      <trkpt lat="43.45947" lon="3.71408">
        <ele>178.25</ele>
        <time>2022-04-19T13:09:56Z</time>
      </trkpt>
      <trkpt lat="43.45939" lon="3.714">
        <ele>178.7</ele>
        <time>2022-04-19T13:10:06Z</time>
      </trkpt>
      <trkpt lat="43.4593" lon="3.71397">
        <ele>179.08</ele>
        <time>2022-04-19T13:10:15Z</time>
      </trkpt>
      <trkpt lat="43.45921" lon="3.71394">
        <ele>179.95</ele>
        <time>2022-04-19T13:10:24Z</time>
      </trkpt>
      <trkpt lat="43.45911" lon="3.71392">
        <ele>180.79</ele>
        <time>2022-04-19T13:10:34Z</time>
      </trkpt>
      <trkpt lat="43.45902" lon="3.7139">
        <ele>180.93</ele>
        <time>2022-04-19T13:10:44Z</time>
      </trkpt>
      <trkpt lat="43.45893" lon="3.71388">
        <ele>181.59</ele>
        <time>2022-04-19T13:10:53Z</time>
      </trkpt>
      <trkpt lat="43.45884" lon="3.71386">
        <ele>182.26</ele>
        <time>2022-04-19T13:11:02Z</time>
      </trkpt>
      <trkpt lat="43.45874" lon="3.71384">
        <ele>183.14</ele>
        <time>2022-04-19T13:11:11Z</time>
      </trkpt>
      <trkpt lat="43.45865" lon="3.71381">
        <ele>183.79</ele>
        <time>2022-04-19T13:11:20Z</time>
      </trkpt>
      <trkpt lat="43.45856" lon="3.71379">
        <ele>185.82</ele>
        <time>2022-04-19T13:11:29Z</time>
      </trkpt>
      <trkpt lat="43.45847" lon="3.71377">
        <ele>185.75</ele>
        <time>2022-04-19T13:11:38Z</time>
      </trkpt>
      <trkpt lat="43.45838" lon="3.71376">
        <ele>186.06</ele>
        <time>2022-04-19T13:11:47Z</time>
      </trkpt>
      <trkpt lat="43.45828" lon="3.71374">
        <ele>186.93</ele>
        <time>2022-04-19T13:11:56Z</time>
      </trkpt>
      <trkpt lat="43.45819" lon="3.71371">
        <ele>187.69</ele>
        <time>2022-04-19T13:12:05Z</time>
      </trkpt>
      <trkpt lat="43.4581" lon="3.71368">
        <ele>188.5</ele>
        <time>2022-04-19T13:12:14Z</time>
      </trkpt>
      <trkpt lat="43.45802" lon="3.71365">
        <ele>189.35</ele>
        <time>2022-04-19T13:12:23Z</time>
      </trkpt>
      <trkpt lat="43.45793" lon="3.71362">
        <ele>190.42</ele>
        <time>2022-04-19T13:12:32Z</time>
      </trkpt>
      <trkpt lat="43.45783" lon="3.71358">
        <ele>191.08</ele>
        <time>2022-04-19T13:12:42Z</time>
      </trkpt>
      <trkpt lat="43.45774" lon="3.71355">
        <ele>191.44</ele>
        <time>2022-04-19T13:12:52Z</time>
      </trkpt>
      <trkpt lat="43.45765" lon="3.71352">
        <ele>191.91</ele>
        <time>2022-04-19T13:13:02Z</time>
      </trkpt>
      <trkpt lat="43.45756" lon="3.71348">
        <ele>192.43</ele>
        <time>2022-04-19T13:13:12Z</time>
      </trkpt>
      <trkpt lat="43.45747" lon="3.71344">
        <ele>192.92</ele>
        <time>2022-04-19T13:13:21Z</time>
      </trkpt>
      <trkpt lat="43.45738" lon="3.71339">
        <ele>193.79</ele>
        <time>2022-04-19T13:13:31Z</time>
      </trkpt>
      <trkpt lat="43.45729" lon="3.71335">
        <ele>194.31</ele>
        <time>2022-04-19T13:13:40Z</time>
      </trkpt>
      <trkpt lat="43.4572" lon="3.71331">
        <ele>194.11</ele>
        <time>2022-04-19T13:13:49Z</time>
      </trkpt>
      <trkpt lat="43.45712" lon="3.71325">
        <ele>194.64</ele>
        <time>2022-04-19T13:13:59Z</time>
      </trkpt>
      <trkpt lat="43.45705" lon="3.71316">
        <ele>195.17</ele>
        <time>2022-04-19T13:14:30Z</time>
      </trkpt>
      <trkpt lat="43.457" lon="3.71305">
        <ele>195.21</ele>
        <time>2022-04-19T13:14:39Z</time>
      </trkpt>
      <trkpt lat="43.45699" lon="3.71292">
        <ele>195.71</ele>
        <time>2022-04-19T13:14:52Z</time>
      </trkpt>
      <trkpt lat="43.45694" lon="3.7128">
        <ele>196.42</ele>
        <time>2022-04-19T13:15:01Z</time>
      </trkpt>
      <trkpt lat="43.45693" lon="3.71267">
        <ele>197.09</ele>
        <time>2022-04-19T13:15:09Z</time>
      </trkpt>
      <trkpt lat="43.45692" lon="3.71253">
        <ele>197.48</ele>
        <time>2022-04-19T13:15:18Z</time>
      </trkpt>
      <trkpt lat="43.45691" lon="3.7124">
        <ele>197.95</ele>
        <time>2022-04-19T13:15:27Z</time>
      </trkpt>
      <trkpt lat="43.45691" lon="3.71227">
        <ele>198.52</ele>
        <time>2022-04-19T13:15:36Z</time>
      </trkpt>
      <trkpt lat="43.45691" lon="3.71215">
        <ele>199.09</ele>
        <time>2022-04-19T13:15:45Z</time>
      </trkpt>
      <trkpt lat="43.45693" lon="3.71202">
        <ele>199.41</ele>
        <time>2022-04-19T13:15:54Z</time>
      </trkpt>
      <trkpt lat="43.45694" lon="3.71188">
        <ele>199.97</ele>
        <time>2022-04-19T13:16:03Z</time>
      </trkpt>
      <trkpt lat="43.45696" lon="3.71175">
        <ele>200.28</ele>
        <time>2022-04-19T13:16:12Z</time>
      </trkpt>
      <trkpt lat="43.45699" lon="3.71162">
        <ele>200.78</ele>
        <time>2022-04-19T13:16:21Z</time>
      </trkpt>
      <trkpt lat="43.45704" lon="3.71151">
        <ele>201.33</ele>
        <time>2022-04-19T13:16:29Z</time>
      </trkpt>
      <trkpt lat="43.45711" lon="3.7114">
        <ele>202.58</ele>
        <time>2022-04-19T13:16:39Z</time>
      </trkpt>
      <trkpt lat="43.45718" lon="3.7113">
        <ele>203.49</ele>
        <time>2022-04-19T13:16:48Z</time>
      </trkpt>
      <trkpt lat="43.45725" lon="3.71123">
        <ele>204.39</ele>
        <time>2022-04-19T13:16:56Z</time>
      </trkpt>
      <trkpt lat="43.45734" lon="3.71116">
        <ele>205.31</ele>
        <time>2022-04-19T13:17:05Z</time>
      </trkpt>
      <trkpt lat="43.45742" lon="3.71109">
        <ele>206.27</ele>
        <time>2022-04-19T13:17:14Z</time>
      </trkpt>
      <trkpt lat="43.45751" lon="3.71105">
        <ele>206.69</ele>
        <time>2022-04-19T13:17:22Z</time>
      </trkpt>
      <trkpt lat="43.4576" lon="3.71102">
        <ele>206.74</ele>
        <time>2022-04-19T13:17:31Z</time>
      </trkpt>
      <trkpt lat="43.4577" lon="3.71101">
        <ele>207.45</ele>
        <time>2022-04-19T13:17:40Z</time>
      </trkpt>
      <trkpt lat="43.45779" lon="3.711">
        <ele>207.7</ele>
        <time>2022-04-19T13:17:49Z</time>
      </trkpt>
      <trkpt lat="43.45788" lon="3.711">
        <ele>208.38</ele>
        <time>2022-04-19T13:17:58Z</time>
      </trkpt>
      <trkpt lat="43.45797" lon="3.71104">
        <ele>208.63</ele>
        <time>2022-04-19T13:18:41Z</time>
      </trkpt>
      <trkpt lat="43.45802" lon="3.71114">
        <ele>208.59</ele>
        <time>2022-04-19T13:19:05Z</time>
      </trkpt>
      <trkpt lat="43.45809" lon="3.71123">
        <ele>208.89</ele>
        <time>2022-04-19T13:19:31Z</time>
      </trkpt>
      <trkpt lat="43.45815" lon="3.71133">
        <ele>209.4</ele>
        <time>2022-04-19T13:19:42Z</time>
      </trkpt>
      <trkpt lat="43.45819" lon="3.71145">
        <ele>209.44</ele>
        <time>2022-04-19T13:20:25Z</time>
      </trkpt>
      <trkpt lat="43.45822" lon="3.71157">
        <ele>209.65</ele>
        <time>2022-04-19T13:20:42Z</time>
      </trkpt>
      <trkpt lat="43.45823" lon="3.7117">
        <ele>210.35</ele>
        <time>2022-04-19T13:20:53Z</time>
      </trkpt>
      <trkpt lat="43.45821" lon="3.71183">
        <ele>210.77</ele>
        <time>2022-04-19T13:21:04Z</time>
      </trkpt>
      <trkpt lat="43.4582" lon="3.71195">
        <ele>211.26</ele>
        <time>2022-04-19T13:21:14Z</time>
      </trkpt>
      <trkpt lat="43.45819" lon="3.71208">
        <ele>211.43</ele>
        <time>2022-04-19T13:21:26Z</time>
      </trkpt>
      <trkpt lat="43.45826" lon="3.71209">
        <ele>213</ele>
        <time>2022-04-19T13:23:27Z</time>
      </trkpt>
      <trkpt lat="43.45825" lon="3.71211">
        <ele>212.41</ele>
        <time>2022-04-19T13:25:28Z</time>
      </trkpt>
      <trkpt lat="43.45815" lon="3.71214">
        <ele>212.27</ele>
        <time>2022-04-19T13:26:18Z</time>
      </trkpt>
      <trkpt lat="43.45806" lon="3.71219">
        <ele>212.5</ele>
        <time>2022-04-19T13:26:28Z</time>
      </trkpt>
      <trkpt lat="43.45803" lon="3.71231">
        <ele>212.11</ele>
        <time>2022-04-19T13:26:39Z</time>
      </trkpt>
      <trkpt lat="43.45805" lon="3.71218">
        <ele>212.48</ele>
        <time>2022-04-19T13:28:00Z</time>
      </trkpt>
      <trkpt lat="43.45811" lon="3.71208">
        <ele>212.67</ele>
        <time>2022-04-19T13:28:09Z</time>
      </trkpt>
      <trkpt lat="43.45817" lon="3.71199">
        <ele>212.3</ele>
        <time>2022-04-19T13:28:22Z</time>
      </trkpt>
      <trkpt lat="43.4582" lon="3.71187">
        <ele>211.76</ele>
        <time>2022-04-19T13:28:32Z</time>
      </trkpt>
      <trkpt lat="43.45821" lon="3.71174">
        <ele>211.27</ele>
        <time>2022-04-19T13:28:41Z</time>
      </trkpt>
      <trkpt lat="43.45822" lon="3.71162">
        <ele>211.05</ele>
        <time>2022-04-19T13:28:50Z</time>
      </trkpt>
      <trkpt lat="43.4582" lon="3.7115">
        <ele>210.76</ele>
        <time>2022-04-19T13:28:59Z</time>
      </trkpt>
      <trkpt lat="43.45827" lon="3.71141">
        <ele>210.42</ele>
        <time>2022-04-19T13:29:14Z</time>
      </trkpt>
      <trkpt lat="43.45836" lon="3.71142">
        <ele>210.03</ele>
        <time>2022-04-19T13:29:27Z</time>
      </trkpt>
      <trkpt lat="43.45846" lon="3.71143">
        <ele>210.03</ele>
        <time>2022-04-19T13:29:38Z</time>
      </trkpt>
      <trkpt lat="43.45855" lon="3.71144">
        <ele>209.72</ele>
        <time>2022-04-19T13:29:50Z</time>
      </trkpt>
      <trkpt lat="43.45865" lon="3.71145">
        <ele>209.77</ele>
        <time>2022-04-19T13:29:59Z</time>
      </trkpt>
      <trkpt lat="43.45873" lon="3.71148">
        <ele>210.01</ele>
        <time>2022-04-19T13:30:10Z</time>
      </trkpt>
      <trkpt lat="43.4588" lon="3.71157">
        <ele>210.29</ele>
        <time>2022-04-19T13:30:22Z</time>
      </trkpt>
      <trkpt lat="43.45888" lon="3.71164">
        <ele>208.48</ele>
        <time>2022-04-19T13:30:57Z</time>
      </trkpt>
      <trkpt lat="43.45894" lon="3.71175">
        <ele>209.13</ele>
        <time>2022-04-19T13:31:14Z</time>
      </trkpt>
      <trkpt lat="43.459" lon="3.71185">
        <ele>208.63</ele>
        <time>2022-04-19T13:31:25Z</time>
      </trkpt>
      <trkpt lat="43.45907" lon="3.71194">
        <ele>207.78</ele>
        <time>2022-04-19T13:31:38Z</time>
      </trkpt>
      <trkpt lat="43.45912" lon="3.71204">
        <ele>207.25</ele>
        <time>2022-04-19T13:31:48Z</time>
      </trkpt>
      <trkpt lat="43.45917" lon="3.71215">
        <ele>205.9</ele>
        <time>2022-04-19T13:32:08Z</time>
      </trkpt>
      <trkpt lat="43.4592" lon="3.71228">
        <ele>205.17</ele>
        <time>2022-04-19T13:32:17Z</time>
      </trkpt>
      <trkpt lat="43.4592" lon="3.71241">
        <ele>204.87</ele>
        <time>2022-04-19T13:32:28Z</time>
      </trkpt>
      <trkpt lat="43.45921" lon="3.71254">
        <ele>204.33</ele>
        <time>2022-04-19T13:32:39Z</time>
      </trkpt>
      <trkpt lat="43.45923" lon="3.71266">
        <ele>202.69</ele>
        <time>2022-04-19T13:32:49Z</time>
      </trkpt>
      <trkpt lat="43.45928" lon="3.71278">
        <ele>201.03</ele>
        <time>2022-04-19T13:33:01Z</time>
      </trkpt>
      <trkpt lat="43.45932" lon="3.7129">
        <ele>199.51</ele>
        <time>2022-04-19T13:33:11Z</time>
      </trkpt>
      <trkpt lat="43.45938" lon="3.71299">
        <ele>198.75</ele>
        <time>2022-04-19T13:33:24Z</time>
      </trkpt>
      <trkpt lat="43.45948" lon="3.713">
        <ele>197.94</ele>
        <time>2022-04-19T13:33:38Z</time>
      </trkpt>
      <trkpt lat="43.45957" lon="3.71299">
        <ele>197.73</ele>
        <time>2022-04-19T13:33:49Z</time>
      </trkpt>
      <trkpt lat="43.45967" lon="3.71299">
        <ele>198.29</ele>
        <time>2022-04-19T13:34:03Z</time>
      </trkpt>
      <trkpt lat="43.45976" lon="3.71298">
        <ele>198.13</ele>
        <time>2022-04-19T13:34:12Z</time>
      </trkpt>
      <trkpt lat="43.45986" lon="3.71296">
        <ele>198.43</ele>
        <time>2022-04-19T13:34:21Z</time>
      </trkpt>
      <trkpt lat="43.45995" lon="3.71294">
        <ele>197.59</ele>
        <time>2022-04-19T13:34:29Z</time>
      </trkpt>
      <trkpt lat="43.46003" lon="3.71289">
        <ele>196.72</ele>
        <time>2022-04-19T13:34:37Z</time>
      </trkpt>
      <trkpt lat="43.46011" lon="3.71283">
        <ele>195.03</ele>
        <time>2022-04-19T13:34:47Z</time>
      </trkpt>
      <trkpt lat="43.4602" lon="3.71279">
        <ele>193.54</ele>
        <time>2022-04-19T13:34:57Z</time>
      </trkpt>
      <trkpt lat="43.4603" lon="3.71277">
        <ele>192.13</ele>
        <time>2022-04-19T13:35:08Z</time>
      </trkpt>
      <trkpt lat="43.46039" lon="3.71274">
        <ele>190.73</ele>
        <time>2022-04-19T13:35:19Z</time>
      </trkpt>
      <trkpt lat="43.46048" lon="3.71269">
        <ele>189.61</ele>
        <time>2022-04-19T13:35:29Z</time>
      </trkpt>
      <trkpt lat="43.46057" lon="3.71266">
        <ele>187.93</ele>
        <time>2022-04-19T13:35:40Z</time>
      </trkpt>
      <trkpt lat="43.46066" lon="3.71262">
        <ele>186.74</ele>
        <time>2022-04-19T13:35:51Z</time>
      </trkpt>
      <trkpt lat="43.46076" lon="3.7126">
        <ele>186.02</ele>
        <time>2022-04-19T13:36:00Z</time>
      </trkpt>
      <trkpt lat="43.46085" lon="3.71259">
        <ele>185.22</ele>
        <time>2022-04-19T13:36:08Z</time>
      </trkpt>
      <trkpt lat="43.46094" lon="3.71256">
        <ele>184.66</ele>
        <time>2022-04-19T13:36:17Z</time>
      </trkpt>
      <trkpt lat="43.46101" lon="3.71249">
        <ele>184.25</ele>
        <time>2022-04-19T13:36:40Z</time>
      </trkpt>
      <trkpt lat="43.46109" lon="3.71242">
        <ele>182.61</ele>
        <time>2022-04-19T13:36:51Z</time>
      </trkpt>
      <trkpt lat="43.46117" lon="3.71235">
        <ele>181.58</ele>
        <time>2022-04-19T13:37:01Z</time>
      </trkpt>
      <trkpt lat="43.46126" lon="3.7123">
        <ele>180.73</ele>
        <time>2022-04-19T13:37:11Z</time>
      </trkpt>
      <trkpt lat="43.46134" lon="3.71223">
        <ele>178.91</ele>
        <time>2022-04-19T13:37:22Z</time>
      </trkpt>
      <trkpt lat="43.46141" lon="3.71216">
        <ele>177.86</ele>
        <time>2022-04-19T13:37:33Z</time>
      </trkpt>
      <trkpt lat="43.46148" lon="3.71207">
        <ele>176.59</ele>
        <time>2022-04-19T13:37:45Z</time>
      </trkpt>
      <trkpt lat="43.46156" lon="3.71199">
        <ele>175.72</ele>
        <time>2022-04-19T13:37:58Z</time>
      </trkpt>
      <trkpt lat="43.46161" lon="3.71188">
        <ele>174.76</ele>
        <time>2022-04-19T13:38:12Z</time>
      </trkpt>
      <trkpt lat="43.46169" lon="3.71183">
        <ele>173.71</ele>
        <time>2022-04-19T13:38:21Z</time>
      </trkpt>
      <trkpt lat="43.46178" lon="3.71179">
        <ele>173.84</ele>
        <time>2022-04-19T13:38:30Z</time>
      </trkpt>
      <trkpt lat="43.46186" lon="3.71175">
        <ele>174.8</ele>
        <time>2022-04-19T13:38:54Z</time>
      </trkpt>
      <trkpt lat="43.46195" lon="3.7117">
        <ele>175.06</ele>
        <time>2022-04-19T13:40:09Z</time>
      </trkpt>
      <trkpt lat="43.46204" lon="3.71173">
        <ele>174.17</ele>
        <time>2022-04-19T13:40:21Z</time>
      </trkpt>
      <trkpt lat="43.46213" lon="3.71173">
        <ele>172.81</ele>
        <time>2022-04-19T13:40:33Z</time>
      </trkpt>
      <trkpt lat="43.46222" lon="3.71169">
        <ele>171.42</ele>
        <time>2022-04-19T13:40:43Z</time>
      </trkpt>
      <trkpt lat="43.46231" lon="3.71164">
        <ele>170.23</ele>
        <time>2022-04-19T13:40:53Z</time>
      </trkpt>
      <trkpt lat="43.46241" lon="3.71161">
        <ele>168.6</ele>
        <time>2022-04-19T13:41:03Z</time>
      </trkpt>
      <trkpt lat="43.46251" lon="3.71159">
        <ele>167.08</ele>
        <time>2022-04-19T13:41:13Z</time>
      </trkpt>
      <trkpt lat="43.4626" lon="3.71159">
        <ele>165.91</ele>
        <time>2022-04-19T13:41:24Z</time>
      </trkpt>
      <trkpt lat="43.4627" lon="3.71156">
        <ele>165.19</ele>
        <time>2022-04-19T13:41:46Z</time>
      </trkpt>
      <trkpt lat="43.46279" lon="3.71154">
        <ele>165.24</ele>
        <time>2022-04-19T13:42:01Z</time>
      </trkpt>
      <trkpt lat="43.46288" lon="3.71157">
        <ele>163.26</ele>
        <time>2022-04-19T13:42:29Z</time>
      </trkpt>
      <trkpt lat="43.46297" lon="3.71161">
        <ele>162.38</ele>
        <time>2022-04-19T13:42:40Z</time>
      </trkpt>
      <trkpt lat="43.46306" lon="3.71164">
        <ele>160.94</ele>
        <time>2022-04-19T13:42:52Z</time>
      </trkpt>
      <trkpt lat="43.46315" lon="3.71166">
        <ele>159.18</ele>
        <time>2022-04-19T13:43:02Z</time>
      </trkpt>
      <trkpt lat="43.46325" lon="3.71168">
        <ele>157.82</ele>
        <time>2022-04-19T13:43:14Z</time>
      </trkpt>
      <trkpt lat="43.46335" lon="3.71169">
        <ele>156.98</ele>
        <time>2022-04-19T13:43:23Z</time>
      </trkpt>
      <trkpt lat="43.46344" lon="3.71171">
        <ele>154.97</ele>
        <time>2022-04-19T13:43:42Z</time>
      </trkpt>
      <trkpt lat="43.46354" lon="3.71174">
        <ele>153.97</ele>
        <time>2022-04-19T13:43:57Z</time>
      </trkpt>
      <trkpt lat="43.46362" lon="3.71178">
        <ele>152.94</ele>
        <time>2022-04-19T13:44:08Z</time>
      </trkpt>
      <trkpt lat="43.46372" lon="3.7118">
        <ele>152.04</ele>
        <time>2022-04-19T13:44:19Z</time>
      </trkpt>
      <trkpt lat="43.46381" lon="3.71183">
        <ele>150.79</ele>
        <time>2022-04-19T13:44:28Z</time>
      </trkpt>
      <trkpt lat="43.4639" lon="3.71185">
        <ele>150.03</ele>
        <time>2022-04-19T13:44:40Z</time>
      </trkpt>
      <trkpt lat="43.46399" lon="3.7119">
        <ele>149.15</ele>
        <time>2022-04-19T13:44:56Z</time>
      </trkpt>
      <trkpt lat="43.46407" lon="3.71195">
        <ele>147.2</ele>
        <time>2022-04-19T13:45:11Z</time>
      </trkpt>
      <trkpt lat="43.46416" lon="3.712">
        <ele>145.36</ele>
        <time>2022-04-19T13:45:22Z</time>
      </trkpt>
      <trkpt lat="43.46425" lon="3.71204">
        <ele>143.25</ele>
        <time>2022-04-19T13:45:34Z</time>
      </trkpt>
      <trkpt lat="43.46435" lon="3.71207">
        <ele>141.42</ele>
        <time>2022-04-19T13:45:45Z</time>
      </trkpt>
      <trkpt lat="43.46444" lon="3.7121">
        <ele>139.45</ele>
        <time>2022-04-19T13:45:55Z</time>
      </trkpt>
      <trkpt lat="43.46453" lon="3.71213">
        <ele>138.34</ele>
        <time>2022-04-19T13:46:05Z</time>
      </trkpt>
      <trkpt lat="43.46462" lon="3.71217">
        <ele>136.88</ele>
        <time>2022-04-19T13:46:15Z</time>
      </trkpt>
      <trkpt lat="43.46471" lon="3.71219">
        <ele>135.37</ele>
        <time>2022-04-19T13:46:25Z</time>
      </trkpt>
      <trkpt lat="43.4648" lon="3.71222">
        <ele>133.37</ele>
        <time>2022-04-19T13:46:35Z</time>
      </trkpt>
      <trkpt lat="43.46489" lon="3.7122">
        <ele>132.11</ele>
        <time>2022-04-19T13:46:49Z</time>
      </trkpt>
      <trkpt lat="43.46489" lon="3.71233">
        <ele>131.76</ele>
        <time>2022-04-19T13:47:13Z</time>
      </trkpt>
      <trkpt lat="43.46493" lon="3.71244">
        <ele>130.94</ele>
        <time>2022-04-19T13:48:11Z</time>
      </trkpt>
      <trkpt lat="43.46503" lon="3.71246">
        <ele>129.44</ele>
        <time>2022-04-19T13:48:45Z</time>
      </trkpt>
      <trkpt lat="43.46512" lon="3.71248">
        <ele>127.97</ele>
        <time>2022-04-19T13:48:59Z</time>
      </trkpt>
      <trkpt lat="43.46521" lon="3.71247">
        <ele>125.73</ele>
        <time>2022-04-19T13:49:11Z</time>
      </trkpt>
      <trkpt lat="43.46531" lon="3.71246">
        <ele>122.73</ele>
        <time>2022-04-19T13:49:29Z</time>
      </trkpt>
      <trkpt lat="43.4654" lon="3.71247">
        <ele>120.8</ele>
        <time>2022-04-19T13:49:40Z</time>
      </trkpt>
      <trkpt lat="43.4655" lon="3.7125">
        <ele>118.77</ele>
        <time>2022-04-19T13:49:52Z</time>
      </trkpt>
      <trkpt lat="43.46558" lon="3.71254">
        <ele>116.55</ele>
        <time>2022-04-19T13:50:04Z</time>
      </trkpt>
      <trkpt lat="43.46567" lon="3.71257">
        <ele>114.58</ele>
        <time>2022-04-19T13:50:32Z</time>
      </trkpt>
      <trkpt lat="43.46575" lon="3.71264">
        <ele>113</ele>
        <time>2022-04-19T13:50:45Z</time>
      </trkpt>
      <trkpt lat="43.46584" lon="3.71267">
        <ele>110.97</ele>
        <time>2022-04-19T13:50:58Z</time>
      </trkpt>
      <trkpt lat="43.46593" lon="3.71273">
        <ele>108.31</ele>
        <time>2022-04-19T13:51:11Z</time>
      </trkpt>
      <trkpt lat="43.46602" lon="3.71276">
        <ele>105.86</ele>
        <time>2022-04-19T13:51:27Z</time>
      </trkpt>
      <trkpt lat="43.46611" lon="3.71281">
        <ele>104.34</ele>
        <time>2022-04-19T13:51:43Z</time>
      </trkpt>
      <trkpt lat="43.46617" lon="3.71272">
        <ele>103.35</ele>
        <time>2022-04-19T13:52:00Z</time>
      </trkpt>
      <trkpt lat="43.46624" lon="3.71262">
        <ele>102.65</ele>
        <time>2022-04-19T13:52:11Z</time>
      </trkpt>
      <trkpt lat="43.46631" lon="3.71255">
        <ele>102.12</ele>
        <time>2022-04-19T13:52:19Z</time>
      </trkpt>
      <trkpt lat="43.46639" lon="3.71247">
        <ele>101.44</ele>
        <time>2022-04-19T13:53:04Z</time>
      </trkpt>
      <trkpt lat="43.46647" lon="3.71239">
        <ele>100.94</ele>
        <time>2022-04-19T13:53:13Z</time>
      </trkpt>
      <trkpt lat="43.46651" lon="3.71227">
        <ele>100.99</ele>
        <time>2022-04-19T13:53:23Z</time>
      </trkpt>
      <trkpt lat="43.46654" lon="3.71215">
        <ele>101.46</ele>
        <time>2022-04-19T13:53:35Z</time>
      </trkpt>
      <trkpt lat="43.46657" lon="3.71202">
        <ele>100.62</ele>
        <time>2022-04-19T13:53:46Z</time>
      </trkpt>
      <trkpt lat="43.46663" lon="3.71193">
        <ele>99.55</ele>
        <time>2022-04-19T13:53:56Z</time>
      </trkpt>
      <trkpt lat="43.46671" lon="3.71186">
        <ele>99.57</ele>
        <time>2022-04-19T13:54:06Z</time>
      </trkpt>
      <trkpt lat="43.46678" lon="3.71178">
        <ele>100.3</ele>
        <time>2022-04-19T13:54:17Z</time>
      </trkpt>
      <trkpt lat="43.46687" lon="3.71177">
        <ele>100.36</ele>
        <time>2022-04-19T13:54:50Z</time>
      </trkpt>
      <trkpt lat="43.46696" lon="3.7118">
        <ele>100.79</ele>
        <time>2022-04-19T13:55:02Z</time>
      </trkpt>
      <trkpt lat="43.46704" lon="3.71185">
        <ele>101.35</ele>
        <time>2022-04-19T13:55:13Z</time>
      </trkpt>
      <trkpt lat="43.46713" lon="3.71191">
        <ele>101.29</ele>
        <time>2022-04-19T13:55:21Z</time>
      </trkpt>
      <trkpt lat="43.46721" lon="3.71198">
        <ele>101.21</ele>
        <time>2022-04-19T13:55:29Z</time>
      </trkpt>
      <trkpt lat="43.46728" lon="3.71207">
        <ele>101.7</ele>
        <time>2022-04-19T13:55:37Z</time>
      </trkpt>
      <trkpt lat="43.46735" lon="3.71215">
        <ele>102.17</ele>
        <time>2022-04-19T13:55:45Z</time>
      </trkpt>
      <trkpt lat="43.4674" lon="3.71226">
        <ele>102.56</ele>
        <time>2022-04-19T13:55:53Z</time>
      </trkpt>
      <trkpt lat="43.46745" lon="3.71238">
        <ele>103.31</ele>
        <time>2022-04-19T13:56:01Z</time>
      </trkpt>
      <trkpt lat="43.46749" lon="3.7125">
        <ele>103.56</ele>
        <time>2022-04-19T13:56:09Z</time>
      </trkpt>
      <trkpt lat="43.46751" lon="3.71263">
        <ele>103.59</ele>
        <time>2022-04-19T13:56:17Z</time>
      </trkpt>
      <trkpt lat="43.46751" lon="3.71276">
        <ele>103.57</ele>
        <time>2022-04-19T13:56:25Z</time>
      </trkpt>
      <trkpt lat="43.46747" lon="3.71288">
        <ele>103.99</ele>
        <time>2022-04-19T13:56:33Z</time>
      </trkpt>
      <trkpt lat="43.46742" lon="3.71299">
        <ele>104.09</ele>
        <time>2022-04-19T13:56:41Z</time>
      </trkpt>
      <trkpt lat="43.46737" lon="3.71309">
        <ele>104.11</ele>
        <time>2022-04-19T13:56:49Z</time>
      </trkpt>
      <trkpt lat="43.46734" lon="3.71321">
        <ele>104.23</ele>
        <time>2022-04-19T13:56:57Z</time>
      </trkpt>
      <trkpt lat="43.46733" lon="3.71334">
        <ele>103.42</ele>
        <time>2022-04-19T13:57:05Z</time>
      </trkpt>
      <trkpt lat="43.46734" lon="3.71348">
        <ele>104.03</ele>
        <time>2022-04-19T13:57:13Z</time>
      </trkpt>
      <trkpt lat="43.46738" lon="3.7136">
        <ele>105.06</ele>
        <time>2022-04-19T13:57:22Z</time>
      </trkpt>
      <trkpt lat="43.46741" lon="3.71371">
        <ele>106.05</ele>
        <time>2022-04-19T13:57:30Z</time>
      </trkpt>
      <trkpt lat="43.46745" lon="3.71383">
        <ele>106.57</ele>
        <time>2022-04-19T13:57:38Z</time>
      </trkpt>
      <trkpt lat="43.46748" lon="3.71396">
        <ele>107.62</ele>
        <time>2022-04-19T13:57:47Z</time>
      </trkpt>
      <trkpt lat="43.46748" lon="3.71409">
        <ele>107.18</ele>
        <time>2022-04-19T13:58:03Z</time>
      </trkpt>
      <trkpt lat="43.46747" lon="3.71423">
        <ele>106.37</ele>
        <time>2022-04-19T13:58:12Z</time>
      </trkpt>
      <trkpt lat="43.46747" lon="3.71436">
        <ele>106.19</ele>
        <time>2022-04-19T13:58:20Z</time>
      </trkpt>
      <trkpt lat="43.46747" lon="3.71449">
        <ele>106.25</ele>
        <time>2022-04-19T13:58:34Z</time>
      </trkpt>
      <trkpt lat="43.46746" lon="3.71462">
        <ele>106.67</ele>
        <time>2022-04-19T13:58:43Z</time>
      </trkpt>
      <trkpt lat="43.46746" lon="3.71475">
        <ele>106.82</ele>
        <time>2022-04-19T13:58:51Z</time>
      </trkpt>
      <trkpt lat="43.46746" lon="3.71487">
        <ele>106.94</ele>
        <time>2022-04-19T13:58:59Z</time>
      </trkpt>
      <trkpt lat="43.46744" lon="3.71501">
        <ele>106.94</ele>
        <time>2022-04-19T13:59:08Z</time>
      </trkpt>
      <trkpt lat="43.46743" lon="3.71513">
        <ele>107.6</ele>
        <time>2022-04-19T13:59:17Z</time>
      </trkpt>
      <trkpt lat="43.46737" lon="3.71523">
        <ele>107.37</ele>
        <time>2022-04-19T13:59:32Z</time>
      </trkpt>
      <trkpt lat="43.4673" lon="3.7153">
        <ele>107.77</ele>
        <time>2022-04-19T13:59:53Z</time>
      </trkpt>
      <trkpt lat="43.46722" lon="3.71539">
        <ele>109.23</ele>
        <time>2022-04-19T14:00:04Z</time>
      </trkpt>
      <trkpt lat="43.46715" lon="3.71547">
        <ele>111.05</ele>
        <time>2022-04-19T14:00:13Z</time>
      </trkpt>
      <trkpt lat="43.46706" lon="3.71548">
        <ele>110.97</ele>
        <time>2022-04-19T14:00:35Z</time>
      </trkpt>
      <trkpt lat="43.46701" lon="3.71556">
        <ele>111.82</ele>
        <time>2022-04-19T14:02:36Z</time>
      </trkpt>
      <trkpt lat="43.46701" lon="3.71556">
        <ele>111.8</ele>
        <time>2022-04-19T14:04:37Z</time>
      </trkpt>
      <trkpt lat="43.46701" lon="3.71556">
        <ele>111.8</ele>
        <time>2022-04-19T14:06:37.607Z</time>
      </trkpt>
      <trkpt lat="43.46702" lon="3.71556">
        <ele>118.62</ele>
        <time>2022-04-19T14:08:38Z</time>
      </trkpt>
      <trkpt lat="43.46705" lon="3.71569">
        <ele>113.94</ele>
        <time>2022-04-19T14:09:08Z</time>
      </trkpt>
      <trkpt lat="43.46706" lon="3.71581">
        <ele>113.42</ele>
        <time>2022-04-19T14:09:27Z</time>
      </trkpt>
      <trkpt lat="43.46714" lon="3.71589">
        <ele>113.17</ele>
        <time>2022-04-19T14:09:36Z</time>
      </trkpt>
      <trkpt lat="43.46723" lon="3.71594">
        <ele>113.09</ele>
        <time>2022-04-19T14:09:44Z</time>
      </trkpt>
      <trkpt lat="43.46732" lon="3.71599">
        <ele>112.95</ele>
        <time>2022-04-19T14:09:53Z</time>
      </trkpt>
      <trkpt lat="43.4674" lon="3.71604">
        <ele>113.65</ele>
        <time>2022-04-19T14:10:01Z</time>
      </trkpt>
      <trkpt lat="43.46748" lon="3.71609">
        <ele>114.31</ele>
        <time>2022-04-19T14:10:09Z</time>
      </trkpt>
      <trkpt lat="43.46757" lon="3.71613">
        <ele>114.03</ele>
        <time>2022-04-19T14:10:16Z</time>
      </trkpt>
      <trkpt lat="43.46767" lon="3.71619">
        <ele>113.42</ele>
        <time>2022-04-19T14:10:24Z</time>
      </trkpt>
      <trkpt lat="43.46775" lon="3.71627">
        <ele>114.93</ele>
        <time>2022-04-19T14:10:32Z</time>
      </trkpt>
      <trkpt lat="43.46782" lon="3.71636">
        <ele>115.69</ele>
        <time>2022-04-19T14:10:40Z</time>
      </trkpt>
      <trkpt lat="43.46786" lon="3.71647">
        <ele>115.98</ele>
        <time>2022-04-19T14:10:49Z</time>
      </trkpt>
      <trkpt lat="43.46791" lon="3.71659">
        <ele>116.34</ele>
        <time>2022-04-19T14:10:57Z</time>
      </trkpt>
      <trkpt lat="43.4679" lon="3.71672">
        <ele>115.8</ele>
        <time>2022-04-19T14:11:05Z</time>
      </trkpt>
      <trkpt lat="43.46789" lon="3.71685">
        <ele>116.62</ele>
        <time>2022-04-19T14:11:13Z</time>
      </trkpt>
      <trkpt lat="43.4679" lon="3.71699">
        <ele>117.56</ele>
        <time>2022-04-19T14:11:21Z</time>
      </trkpt>
      <trkpt lat="43.46793" lon="3.71711">
        <ele>117.29</ele>
        <time>2022-04-19T14:11:29Z</time>
      </trkpt>
      <trkpt lat="43.46802" lon="3.71719">
        <ele>116.92</ele>
        <time>2022-04-19T14:11:38Z</time>
      </trkpt>
      <trkpt lat="43.4681" lon="3.71725">
        <ele>117.05</ele>
        <time>2022-04-19T14:11:47Z</time>
      </trkpt>
      <trkpt lat="43.46818" lon="3.71732">
        <ele>117.9</ele>
        <time>2022-04-19T14:11:55Z</time>
      </trkpt>
      <trkpt lat="43.46826" lon="3.71739">
        <ele>118.52</ele>
        <time>2022-04-19T14:12:04Z</time>
      </trkpt>
      <trkpt lat="43.46834" lon="3.71748">
        <ele>119.51</ele>
        <time>2022-04-19T14:12:13Z</time>
      </trkpt>
      <trkpt lat="43.46839" lon="3.7176">
        <ele>121.31</ele>
        <time>2022-04-19T14:12:24Z</time>
      </trkpt>
      <trkpt lat="43.46841" lon="3.71773">
        <ele>121.17</ele>
        <time>2022-04-19T14:12:33Z</time>
      </trkpt>
      <trkpt lat="43.46842" lon="3.71786">
        <ele>120.99</ele>
        <time>2022-04-19T14:12:43Z</time>
      </trkpt>
      <trkpt lat="43.46847" lon="3.71797">
        <ele>122.02</ele>
        <time>2022-04-19T14:12:51Z</time>
      </trkpt>
      <trkpt lat="43.46854" lon="3.71805">
        <ele>122.03</ele>
        <time>2022-04-19T14:13:00Z</time>
      </trkpt>
      <trkpt lat="43.46862" lon="3.71813">
        <ele>122.3</ele>
        <time>2022-04-19T14:13:08Z</time>
      </trkpt>
      <trkpt lat="43.4687" lon="3.7182">
        <ele>123.12</ele>
        <time>2022-04-19T14:13:17Z</time>
      </trkpt>
      <trkpt lat="43.46876" lon="3.71831">
        <ele>123.91</ele>
        <time>2022-04-19T14:13:26Z</time>
      </trkpt>
      <trkpt lat="43.46876" lon="3.71844">
        <ele>123.19</ele>
        <time>2022-04-19T14:13:34Z</time>
      </trkpt>
      <trkpt lat="43.46875" lon="3.71857">
        <ele>123.31</ele>
        <time>2022-04-19T14:13:42Z</time>
      </trkpt>
      <trkpt lat="43.46875" lon="3.71869">
        <ele>123.59</ele>
        <time>2022-04-19T14:13:50Z</time>
      </trkpt>
      <trkpt lat="43.46877" lon="3.71882">
        <ele>124.32</ele>
        <time>2022-04-19T14:13:59Z</time>
      </trkpt>
      <trkpt lat="43.46885" lon="3.71892">
        <ele>124.73</ele>
        <time>2022-04-19T14:14:09Z</time>
      </trkpt>
      <trkpt lat="43.46894" lon="3.71894">
        <ele>124.92</ele>
        <time>2022-04-19T14:14:17Z</time>
      </trkpt>
      <trkpt lat="43.46904" lon="3.71896">
        <ele>125.37</ele>
        <time>2022-04-19T14:14:26Z</time>
      </trkpt>
      <trkpt lat="43.46914" lon="3.71898">
        <ele>127.16</ele>
        <time>2022-04-19T14:14:35Z</time>
      </trkpt>
      <trkpt lat="43.46923" lon="3.71903">
        <ele>127.77</ele>
        <time>2022-04-19T14:14:44Z</time>
      </trkpt>
      <trkpt lat="43.46932" lon="3.71908">
        <ele>127.96</ele>
        <time>2022-04-19T14:14:53Z</time>
      </trkpt>
      <trkpt lat="43.46939" lon="3.71917">
        <ele>128.83</ele>
        <time>2022-04-19T14:15:01Z</time>
      </trkpt>
      <trkpt lat="43.46948" lon="3.71924">
        <ele>128.77</ele>
        <time>2022-04-19T14:15:09Z</time>
      </trkpt>
      <trkpt lat="43.46956" lon="3.71932">
        <ele>128.85</ele>
        <time>2022-04-19T14:15:17Z</time>
      </trkpt>
      <trkpt lat="43.46963" lon="3.71942">
        <ele>128.44</ele>
        <time>2022-04-19T14:15:25Z</time>
      </trkpt>
      <trkpt lat="43.4697" lon="3.71951">
        <ele>128.28</ele>
        <time>2022-04-19T14:15:33Z</time>
      </trkpt>
      <trkpt lat="43.46975" lon="3.71962">
        <ele>128.23</ele>
        <time>2022-04-19T14:15:41Z</time>
      </trkpt>
      <trkpt lat="43.46978" lon="3.71974">
        <ele>128.39</ele>
        <time>2022-04-19T14:15:49Z</time>
      </trkpt>
      <trkpt lat="43.46978" lon="3.71987">
        <ele>128.36</ele>
        <time>2022-04-19T14:15:57Z</time>
      </trkpt>
      <trkpt lat="43.46977" lon="3.72">
        <ele>129.11</ele>
        <time>2022-04-19T14:16:05Z</time>
      </trkpt>
      <trkpt lat="43.46979" lon="3.72012">
        <ele>129.87</ele>
        <time>2022-04-19T14:16:13Z</time>
      </trkpt>
      <trkpt lat="43.46987" lon="3.7202">
        <ele>129.81</ele>
        <time>2022-04-19T14:16:22Z</time>
      </trkpt>
      <trkpt lat="43.46996" lon="3.72025">
        <ele>130.36</ele>
        <time>2022-04-19T14:16:30Z</time>
      </trkpt>
      <trkpt lat="43.47005" lon="3.72029">
        <ele>130.47</ele>
        <time>2022-04-19T14:16:39Z</time>
      </trkpt>
      <trkpt lat="43.47014" lon="3.72033">
        <ele>130.25</ele>
        <time>2022-04-19T14:16:47Z</time>
      </trkpt>
      <trkpt lat="43.47024" lon="3.72035">
        <ele>131.96</ele>
        <time>2022-04-19T14:16:57Z</time>
      </trkpt>
      <trkpt lat="43.47033" lon="3.72039">
        <ele>132.29</ele>
        <time>2022-04-19T14:17:06Z</time>
      </trkpt>
      <trkpt lat="43.47041" lon="3.72047">
        <ele>133.32</ele>
        <time>2022-04-19T14:17:15Z</time>
      </trkpt>
      <trkpt lat="43.4705" lon="3.72052">
        <ele>135.26</ele>
        <time>2022-04-19T14:17:25Z</time>
      </trkpt>
      <trkpt lat="43.47058" lon="3.72059">
        <ele>136.74</ele>
        <time>2022-04-19T14:17:33Z</time>
      </trkpt>
      <trkpt lat="43.47065" lon="3.72067">
        <ele>137.52</ele>
        <time>2022-04-19T14:17:41Z</time>
      </trkpt>
      <trkpt lat="43.47073" lon="3.72075">
        <ele>139.01</ele>
        <time>2022-04-19T14:17:50Z</time>
      </trkpt>
      <trkpt lat="43.47082" lon="3.7208">
        <ele>138.55</ele>
        <time>2022-04-19T14:17:59Z</time>
      </trkpt>
      <trkpt lat="43.4709" lon="3.72088">
        <ele>140.03</ele>
        <time>2022-04-19T14:18:08Z</time>
      </trkpt>
      <trkpt lat="43.47098" lon="3.72096">
        <ele>140.74</ele>
        <time>2022-04-19T14:18:17Z</time>
      </trkpt>
      <trkpt lat="43.47107" lon="3.72102">
        <ele>141.2</ele>
        <time>2022-04-19T14:18:25Z</time>
      </trkpt>
      <trkpt lat="43.47116" lon="3.72108">
        <ele>141.04</ele>
        <time>2022-04-19T14:18:34Z</time>
      </trkpt>
      <trkpt lat="43.47126" lon="3.72108">
        <ele>140.16</ele>
        <time>2022-04-19T14:18:43Z</time>
      </trkpt>
      <trkpt lat="43.47136" lon="3.72108">
        <ele>140.25</ele>
        <time>2022-04-19T14:18:52Z</time>
      </trkpt>
      <trkpt lat="43.47144" lon="3.7211">
        <ele>140.25</ele>
        <time>2022-04-19T14:19:01Z</time>
      </trkpt>
      <trkpt lat="43.47153" lon="3.72116">
        <ele>140.35</ele>
        <time>2022-04-19T14:19:11Z</time>
      </trkpt>
      <trkpt lat="43.47159" lon="3.72127">
        <ele>140.5</ele>
        <time>2022-04-19T14:19:20Z</time>
      </trkpt>
      <trkpt lat="43.47168" lon="3.72134">
        <ele>141.79</ele>
        <time>2022-04-19T14:19:29Z</time>
      </trkpt>
      <trkpt lat="43.47173" lon="3.72143">
        <ele>142.67</ele>
        <time>2022-04-19T14:19:38Z</time>
      </trkpt>
      <trkpt lat="43.47181" lon="3.72152">
        <ele>141.97</ele>
        <time>2022-04-19T14:19:47Z</time>
      </trkpt>
      <trkpt lat="43.47189" lon="3.72158">
        <ele>142.46</ele>
        <time>2022-04-19T14:19:56Z</time>
      </trkpt>
      <trkpt lat="43.47198" lon="3.72163">
        <ele>145.12</ele>
        <time>2022-04-19T14:20:05Z</time>
      </trkpt>
      <trkpt lat="43.47206" lon="3.7217">
        <ele>145.78</ele>
        <time>2022-04-19T14:20:14Z</time>
      </trkpt>
      <trkpt lat="43.47214" lon="3.72178">
        <ele>146.8</ele>
        <time>2022-04-19T14:20:22Z</time>
      </trkpt>
      <trkpt lat="43.47222" lon="3.72184">
        <ele>146.31</ele>
        <time>2022-04-19T14:20:31Z</time>
      </trkpt>
      <trkpt lat="43.4723" lon="3.72192">
        <ele>146.6</ele>
        <time>2022-04-19T14:20:40Z</time>
      </trkpt>
      <trkpt lat="43.47235" lon="3.72207">
        <ele>143.81</ele>
        <time>2022-04-19T14:20:50Z</time>
      </trkpt>
      <trkpt lat="43.4724" lon="3.72219">
        <ele>143.71</ele>
        <time>2022-04-19T14:20:59Z</time>
      </trkpt>
      <trkpt lat="43.47246" lon="3.72228">
        <ele>144.09</ele>
        <time>2022-04-19T14:21:07Z</time>
      </trkpt>
      <trkpt lat="43.47255" lon="3.72232">
        <ele>143.6</ele>
        <time>2022-04-19T14:21:16Z</time>
      </trkpt>
      <trkpt lat="43.47257" lon="3.72244">
        <ele>143.14</ele>
        <time>2022-04-19T14:21:44Z</time>
      </trkpt>
      <trkpt lat="43.47255" lon="3.72257">
        <ele>142.55</ele>
        <time>2022-04-19T14:21:53Z</time>
      </trkpt>
      <trkpt lat="43.47257" lon="3.72269">
        <ele>143.12</ele>
        <time>2022-04-19T14:22:02Z</time>
      </trkpt>
      <trkpt lat="43.47258" lon="3.72282">
        <ele>143.85</ele>
        <time>2022-04-19T14:22:13Z</time>
      </trkpt>
      <trkpt lat="43.47254" lon="3.72295">
        <ele>144.05</ele>
        <time>2022-04-19T14:22:22Z</time>
      </trkpt>
      <trkpt lat="43.47248" lon="3.72305">
        <ele>144.45</ele>
        <time>2022-04-19T14:22:30Z</time>
      </trkpt>
      <trkpt lat="43.47243" lon="3.72317">
        <ele>144.88</ele>
        <time>2022-04-19T14:22:39Z</time>
      </trkpt>
      <trkpt lat="43.47238" lon="3.72328">
        <ele>144.9</ele>
        <time>2022-04-19T14:22:47Z</time>
      </trkpt>
      <trkpt lat="43.47235" lon="3.72341">
        <ele>144.95</ele>
        <time>2022-04-19T14:22:55Z</time>
      </trkpt>
      <trkpt lat="43.47233" lon="3.72354">
        <ele>145.65</ele>
        <time>2022-04-19T14:23:04Z</time>
      </trkpt>
      <trkpt lat="43.47231" lon="3.72366">
        <ele>145.92</ele>
        <time>2022-04-19T14:23:12Z</time>
      </trkpt>
      <trkpt lat="43.4723" lon="3.72379">
        <ele>146.68</ele>
        <time>2022-04-19T14:23:20Z</time>
      </trkpt>
      <trkpt lat="43.47229" lon="3.72392">
        <ele>145.98</ele>
        <time>2022-04-19T14:23:28Z</time>
      </trkpt>
      <trkpt lat="43.47228" lon="3.72406">
        <ele>145.94</ele>
        <time>2022-04-19T14:23:37Z</time>
      </trkpt>
      <trkpt lat="43.47226" lon="3.72418">
        <ele>145.82</ele>
        <time>2022-04-19T14:23:46Z</time>
      </trkpt>
      <trkpt lat="43.47225" lon="3.72431">
        <ele>146.41</ele>
        <time>2022-04-19T14:23:55Z</time>
      </trkpt>
      <trkpt lat="43.47222" lon="3.72443">
        <ele>146.68</ele>
        <time>2022-04-19T14:24:04Z</time>
      </trkpt>
      <trkpt lat="43.47218" lon="3.72455">
        <ele>146.92</ele>
        <time>2022-04-19T14:24:12Z</time>
      </trkpt>
      <trkpt lat="43.47214" lon="3.72467">
        <ele>147.42</ele>
        <time>2022-04-19T14:24:21Z</time>
      </trkpt>
      <trkpt lat="43.4721" lon="3.72479">
        <ele>148.47</ele>
        <time>2022-04-19T14:24:29Z</time>
      </trkpt>
      <trkpt lat="43.47204" lon="3.7249">
        <ele>150.04</ele>
        <time>2022-04-19T14:24:38Z</time>
      </trkpt>
      <trkpt lat="43.47197" lon="3.72498">
        <ele>150.72</ele>
        <time>2022-04-19T14:24:48Z</time>
      </trkpt>
      <trkpt lat="43.47191" lon="3.72508">
        <ele>152.6</ele>
        <time>2022-04-19T14:24:59Z</time>
      </trkpt>
      <trkpt lat="43.47187" lon="3.72519">
        <ele>153.03</ele>
        <time>2022-04-19T14:25:09Z</time>
      </trkpt>
      <trkpt lat="43.47185" lon="3.72531">
        <ele>153.59</ele>
        <time>2022-04-19T14:25:18Z</time>
      </trkpt>
      <trkpt lat="43.47183" lon="3.72544">
        <ele>153.94</ele>
        <time>2022-04-19T14:25:28Z</time>
      </trkpt>
      <trkpt lat="43.47189" lon="3.72555">
        <ele>152.75</ele>
        <time>2022-04-19T14:25:38Z</time>
      </trkpt>
      <trkpt lat="43.47192" lon="3.72567">
        <ele>153.81</ele>
        <time>2022-04-19T14:25:47Z</time>
      </trkpt>
      <trkpt lat="43.47192" lon="3.7258">
        <ele>153.93</ele>
        <time>2022-04-19T14:25:57Z</time>
      </trkpt>
      <trkpt lat="43.4719" lon="3.72594">
        <ele>155.42</ele>
        <time>2022-04-19T14:26:08Z</time>
      </trkpt>
      <trkpt lat="43.4719" lon="3.72606">
        <ele>155.97</ele>
        <time>2022-04-19T14:26:17Z</time>
      </trkpt>
      <trkpt lat="43.47189" lon="3.7262">
        <ele>156.19</ele>
        <time>2022-04-19T14:26:27Z</time>
      </trkpt>
      <trkpt lat="43.47189" lon="3.72633">
        <ele>156.92</ele>
        <time>2022-04-19T14:26:37Z</time>
      </trkpt>
      <trkpt lat="43.47188" lon="3.72646">
        <ele>157.51</ele>
        <time>2022-04-19T14:26:46Z</time>
      </trkpt>
      <trkpt lat="43.47187" lon="3.72658">
        <ele>157.72</ele>
        <time>2022-04-19T14:26:55Z</time>
      </trkpt>
      <trkpt lat="43.47187" lon="3.72671">
        <ele>159.21</ele>
        <time>2022-04-19T14:27:05Z</time>
      </trkpt>
      <trkpt lat="43.47189" lon="3.72683">
        <ele>158.42</ele>
        <time>2022-04-19T14:27:19Z</time>
      </trkpt>
      <trkpt lat="43.47191" lon="3.72696">
        <ele>158.79</ele>
        <time>2022-04-19T14:28:13Z</time>
      </trkpt>
      <trkpt lat="43.47192" lon="3.72709">
        <ele>159.66</ele>
        <time>2022-04-19T14:28:23Z</time>
      </trkpt>
      <trkpt lat="43.47197" lon="3.72721">
        <ele>160.44</ele>
        <time>2022-04-19T14:28:33Z</time>
      </trkpt>
      <trkpt lat="43.47202" lon="3.72732">
        <ele>160.24</ele>
        <time>2022-04-19T14:28:44Z</time>
      </trkpt>
      <trkpt lat="43.47203" lon="3.72745">
        <ele>161.12</ele>
        <time>2022-04-19T14:28:54Z</time>
      </trkpt>
      <trkpt lat="43.47206" lon="3.72758">
        <ele>160.99</ele>
        <time>2022-04-19T14:29:04Z</time>
      </trkpt>
      <trkpt lat="43.47205" lon="3.72771">
        <ele>162.77</ele>
        <time>2022-04-19T14:29:15Z</time>
      </trkpt>
      <trkpt lat="43.47203" lon="3.72783">
        <ele>164.21</ele>
        <time>2022-04-19T14:29:27Z</time>
      </trkpt>
      <trkpt lat="43.47207" lon="3.72795">
        <ele>164.73</ele>
        <time>2022-04-19T14:29:41Z</time>
      </trkpt>
      <trkpt lat="43.472" lon="3.72803">
        <ele>167.72</ele>
        <time>2022-04-19T14:29:58Z</time>
      </trkpt>
      <trkpt lat="43.47192" lon="3.72808">
        <ele>169.69</ele>
        <time>2022-04-19T14:30:15Z</time>
      </trkpt>
      <trkpt lat="43.47186" lon="3.72818">
        <ele>173.24</ele>
        <time>2022-04-19T14:30:34Z</time>
      </trkpt>
      <trkpt lat="43.4718" lon="3.72827">
        <ele>175.53</ele>
        <time>2022-04-19T14:30:53Z</time>
      </trkpt>
      <trkpt lat="43.47172" lon="3.72832">
        <ele>177.27</ele>
        <time>2022-04-19T14:31:12Z</time>
      </trkpt>
      <trkpt lat="43.47163" lon="3.72837">
        <ele>180.02</ele>
        <time>2022-04-19T14:31:27Z</time>
      </trkpt>
      <trkpt lat="43.47155" lon="3.72842">
        <ele>182.38</ele>
        <time>2022-04-19T14:31:43Z</time>
      </trkpt>
      <trkpt lat="43.47145" lon="3.72842">
        <ele>184.29</ele>
        <time>2022-04-19T14:31:57Z</time>
      </trkpt>
      <trkpt lat="43.47135" lon="3.72841">
        <ele>185.03</ele>
        <time>2022-04-19T14:32:11Z</time>
      </trkpt>
      <trkpt lat="43.47126" lon="3.72843">
        <ele>187.35</ele>
        <time>2022-04-19T14:32:25Z</time>
      </trkpt>
      <trkpt lat="43.47122" lon="3.72854">
        <ele>190.16</ele>
        <time>2022-04-19T14:33:08Z</time>
      </trkpt>
      <trkpt lat="43.47121" lon="3.72865">
        <ele>192.58</ele>
        <time>2022-04-19T14:35:09Z</time>
      </trkpt>
      <trkpt lat="43.47125" lon="3.72857">
        <ele>190.17</ele>
        <time>2022-04-19T14:37:10Z</time>
      </trkpt>
      <trkpt lat="43.47116" lon="3.72859">
        <ele>188.92</ele>
        <time>2022-04-19T14:38:28Z</time>
      </trkpt>
      <trkpt lat="43.47109" lon="3.7285">
        <ele>189.23</ele>
        <time>2022-04-19T14:38:40Z</time>
      </trkpt>
      <trkpt lat="43.471" lon="3.72842">
        <ele>189.5</ele>
        <time>2022-04-19T14:38:50Z</time>
      </trkpt>
      <trkpt lat="43.47093" lon="3.72833">
        <ele>189.96</ele>
        <time>2022-04-19T14:38:59Z</time>
      </trkpt>
      <trkpt lat="43.47084" lon="3.72832">
        <ele>190.16</ele>
        <time>2022-04-19T14:39:07Z</time>
      </trkpt>
      <trkpt lat="43.47076" lon="3.72839">
        <ele>191.07</ele>
        <time>2022-04-19T14:39:22Z</time>
      </trkpt>
      <trkpt lat="43.47077" lon="3.72827">
        <ele>188.26</ele>
        <time>2022-04-19T14:40:27Z</time>
      </trkpt>
      <trkpt lat="43.47069" lon="3.72819">
        <ele>187.29</ele>
        <time>2022-04-19T14:40:37Z</time>
      </trkpt>
      <trkpt lat="43.4706" lon="3.72814">
        <ele>186.89</ele>
        <time>2022-04-19T14:40:46Z</time>
      </trkpt>
      <trkpt lat="43.47051" lon="3.72811">
        <ele>185.42</ele>
        <time>2022-04-19T14:40:57Z</time>
      </trkpt>
      <trkpt lat="43.47043" lon="3.72807">
        <ele>184.58</ele>
        <time>2022-04-19T14:41:26Z</time>
      </trkpt>
      <trkpt lat="43.47034" lon="3.7281">
        <ele>181.38</ele>
        <time>2022-04-19T14:41:41Z</time>
      </trkpt>
      <trkpt lat="43.47024" lon="3.72808">
        <ele>179.71</ele>
        <time>2022-04-19T14:41:57Z</time>
      </trkpt>
      <trkpt lat="43.47014" lon="3.72804">
        <ele>178.49</ele>
        <time>2022-04-19T14:42:09Z</time>
      </trkpt>
      <trkpt lat="43.47004" lon="3.72801">
        <ele>178.35</ele>
        <time>2022-04-19T14:42:17Z</time>
      </trkpt>
      <trkpt lat="43.46996" lon="3.72795">
        <ele>177.84</ele>
        <time>2022-04-19T14:42:25Z</time>
      </trkpt>
      <trkpt lat="43.46987" lon="3.72791">
        <ele>178.02</ele>
        <time>2022-04-19T14:42:33Z</time>
      </trkpt>
      <trkpt lat="43.46977" lon="3.7279">
        <ele>177.73</ele>
        <time>2022-04-19T14:42:41Z</time>
      </trkpt>
      <trkpt lat="43.46968" lon="3.7279">
        <ele>176.5</ele>
        <time>2022-04-19T14:42:50Z</time>
      </trkpt>
      <trkpt lat="43.46958" lon="3.72788">
        <ele>175.36</ele>
        <time>2022-04-19T14:42:59Z</time>
      </trkpt>
      <trkpt lat="43.46949" lon="3.72789">
        <ele>174.06</ele>
        <time>2022-04-19T14:43:08Z</time>
      </trkpt>
      <trkpt lat="43.4694" lon="3.72791">
        <ele>174.07</ele>
        <time>2022-04-19T14:43:17Z</time>
      </trkpt>
      <trkpt lat="43.4693" lon="3.72793">
        <ele>173.35</ele>
        <time>2022-04-19T14:43:26Z</time>
      </trkpt>
      <trkpt lat="43.46921" lon="3.72795">
        <ele>173.24</ele>
        <time>2022-04-19T14:43:34Z</time>
      </trkpt>
      <trkpt lat="43.46911" lon="3.72795">
        <ele>173.27</ele>
        <time>2022-04-19T14:43:43Z</time>
      </trkpt>
      <trkpt lat="43.46901" lon="3.72798">
        <ele>172.88</ele>
        <time>2022-04-19T14:43:52Z</time>
      </trkpt>
      <trkpt lat="43.46892" lon="3.728">
        <ele>172.13</ele>
        <time>2022-04-19T14:44:00Z</time>
      </trkpt>
      <trkpt lat="43.46884" lon="3.72796">
        <ele>171.8</ele>
        <time>2022-04-19T14:44:08Z</time>
      </trkpt>
      <trkpt lat="43.46875" lon="3.7279">
        <ele>172.39</ele>
        <time>2022-04-19T14:44:17Z</time>
      </trkpt>
      <trkpt lat="43.46867" lon="3.72784">
        <ele>173.03</ele>
        <time>2022-04-19T14:44:26Z</time>
      </trkpt>
      <trkpt lat="43.46858" lon="3.72786">
        <ele>173.87</ele>
        <time>2022-04-19T14:44:35Z</time>
      </trkpt>
      <trkpt lat="43.46848" lon="3.72787">
        <ele>173.96</ele>
        <time>2022-04-19T14:44:43Z</time>
      </trkpt>
      <trkpt lat="43.46839" lon="3.72788">
        <ele>175.91</ele>
        <time>2022-04-19T14:45:12Z</time>
      </trkpt>
      <trkpt lat="43.4683" lon="3.7279">
        <ele>176.45</ele>
        <time>2022-04-19T14:45:22Z</time>
      </trkpt>
      <trkpt lat="43.46822" lon="3.72795">
        <ele>175.89</ele>
        <time>2022-04-19T14:45:36Z</time>
      </trkpt>
      <trkpt lat="43.46817" lon="3.72806">
        <ele>172.66</ele>
        <time>2022-04-19T14:45:52Z</time>
      </trkpt>
      <trkpt lat="43.46819" lon="3.72818">
        <ele>170.13</ele>
        <time>2022-04-19T14:46:13Z</time>
      </trkpt>
      <trkpt lat="43.46823" lon="3.7283">
        <ele>169.42</ele>
        <time>2022-04-19T14:46:51Z</time>
      </trkpt>
      <trkpt lat="43.46825" lon="3.72843">
        <ele>168.36</ele>
        <time>2022-04-19T14:47:03Z</time>
      </trkpt>
      <trkpt lat="43.46829" lon="3.72854">
        <ele>166.59</ele>
        <time>2022-04-19T14:47:18Z</time>
      </trkpt>
      <trkpt lat="43.46826" lon="3.72865">
        <ele>165.65</ele>
        <time>2022-04-19T14:47:30Z</time>
      </trkpt>
      <trkpt lat="43.46821" lon="3.72876">
        <ele>165.66</ele>
        <time>2022-04-19T14:47:42Z</time>
      </trkpt>
      <trkpt lat="43.46818" lon="3.72888">
        <ele>163.91</ele>
        <time>2022-04-19T14:49:04Z</time>
      </trkpt>
      <trkpt lat="43.46826" lon="3.72896">
        <ele>164.05</ele>
        <time>2022-04-19T14:49:17Z</time>
      </trkpt>
      <trkpt lat="43.46827" lon="3.72908">
        <ele>162.96</ele>
        <time>2022-04-19T14:49:35Z</time>
      </trkpt>
      <trkpt lat="43.46819" lon="3.72914">
        <ele>162.29</ele>
        <time>2022-04-19T14:49:48Z</time>
      </trkpt>
      <trkpt lat="43.46811" lon="3.72921">
        <ele>160.52</ele>
        <time>2022-04-19T14:49:59Z</time>
      </trkpt>
      <trkpt lat="43.46802" lon="3.72925">
        <ele>160.73</ele>
        <time>2022-04-19T14:50:10Z</time>
      </trkpt>
      <trkpt lat="43.46795" lon="3.72934">
        <ele>160.03</ele>
        <time>2022-04-19T14:50:21Z</time>
      </trkpt>
      <trkpt lat="43.46792" lon="3.72945">
        <ele>160.14</ele>
        <time>2022-04-19T14:50:31Z</time>
      </trkpt>
      <trkpt lat="43.46788" lon="3.72957">
        <ele>160.47</ele>
        <time>2022-04-19T14:50:42Z</time>
      </trkpt>
      <trkpt lat="43.46786" lon="3.7297">
        <ele>160.12</ele>
        <time>2022-04-19T14:50:52Z</time>
      </trkpt>
      <trkpt lat="43.46783" lon="3.72983">
        <ele>158.98</ele>
        <time>2022-04-19T14:51:02Z</time>
      </trkpt>
      <trkpt lat="43.46781" lon="3.72995">
        <ele>158.48</ele>
        <time>2022-04-19T14:51:12Z</time>
      </trkpt>
      <trkpt lat="43.46779" lon="3.73008">
        <ele>155.64</ele>
        <time>2022-04-19T14:51:23Z</time>
      </trkpt>
      <trkpt lat="43.46776" lon="3.73021">
        <ele>156.27</ele>
        <time>2022-04-19T14:51:33Z</time>
      </trkpt>
      <trkpt lat="43.46774" lon="3.73034">
        <ele>156</ele>
        <time>2022-04-19T14:51:44Z</time>
      </trkpt>
      <trkpt lat="43.46771" lon="3.73047">
        <ele>155.21</ele>
        <time>2022-04-19T14:51:55Z</time>
      </trkpt>
      <trkpt lat="43.46769" lon="3.73059">
        <ele>154.02</ele>
        <time>2022-04-19T14:52:06Z</time>
      </trkpt>
      <trkpt lat="43.46765" lon="3.73072">
        <ele>153.04</ele>
        <time>2022-04-19T14:52:17Z</time>
      </trkpt>
      <trkpt lat="43.46764" lon="3.73085">
        <ele>152.79</ele>
        <time>2022-04-19T14:52:29Z</time>
      </trkpt>
      <trkpt lat="43.46761" lon="3.73097">
        <ele>153.01</ele>
        <time>2022-04-19T14:52:41Z</time>
      </trkpt>
      <trkpt lat="43.46758" lon="3.7311">
        <ele>151.54</ele>
        <time>2022-04-19T14:52:52Z</time>
      </trkpt>
      <trkpt lat="43.46754" lon="3.73122">
        <ele>149.97</ele>
        <time>2022-04-19T14:53:05Z</time>
      </trkpt>
      <trkpt lat="43.46753" lon="3.73135">
        <ele>149.07</ele>
        <time>2022-04-19T14:53:16Z</time>
      </trkpt>
      <trkpt lat="43.4675" lon="3.73147">
        <ele>149.28</ele>
        <time>2022-04-19T14:53:26Z</time>
      </trkpt>
      <trkpt lat="43.4675" lon="3.7316">
        <ele>148.93</ele>
        <time>2022-04-19T14:53:36Z</time>
      </trkpt>
      <trkpt lat="43.46748" lon="3.73172">
        <ele>150.01</ele>
        <time>2022-04-19T14:53:46Z</time>
      </trkpt>
      <trkpt lat="43.46745" lon="3.73184">
        <ele>149.17</ele>
        <time>2022-04-19T14:53:56Z</time>
      </trkpt>
      <trkpt lat="43.46743" lon="3.73196">
        <ele>148.09</ele>
        <time>2022-04-19T14:54:05Z</time>
      </trkpt>
      <trkpt lat="43.46741" lon="3.73209">
        <ele>146.66</ele>
        <time>2022-04-19T14:54:15Z</time>
      </trkpt>
      <trkpt lat="43.4674" lon="3.73222">
        <ele>145.78</ele>
        <time>2022-04-19T14:54:25Z</time>
      </trkpt>
      <trkpt lat="43.46744" lon="3.73234">
        <ele>145.31</ele>
        <time>2022-04-19T14:54:34Z</time>
      </trkpt>
      <trkpt lat="43.46746" lon="3.73246">
        <ele>144.52</ele>
        <time>2022-04-19T14:54:44Z</time>
      </trkpt>
      <trkpt lat="43.46744" lon="3.7326">
        <ele>143.99</ele>
        <time>2022-04-19T14:54:53Z</time>
      </trkpt>
      <trkpt lat="43.46741" lon="3.73273">
        <ele>143.74</ele>
        <time>2022-04-19T14:55:02Z</time>
      </trkpt>
      <trkpt lat="43.46741" lon="3.73286">
        <ele>143.99</ele>
        <time>2022-04-19T14:55:11Z</time>
      </trkpt>
      <trkpt lat="43.4674" lon="3.73299">
        <ele>144.22</ele>
        <time>2022-04-19T14:55:20Z</time>
      </trkpt>
      <trkpt lat="43.46741" lon="3.73312">
        <ele>144.02</ele>
        <time>2022-04-19T14:55:29Z</time>
      </trkpt>
      <trkpt lat="43.46737" lon="3.73324">
        <ele>141.2</ele>
        <time>2022-04-19T14:55:42Z</time>
      </trkpt>
      <trkpt lat="43.46731" lon="3.73335">
        <ele>137.79</ele>
        <time>2022-04-19T14:55:52Z</time>
      </trkpt>
      <trkpt lat="43.46727" lon="3.73346">
        <ele>136.35</ele>
        <time>2022-04-19T14:56:03Z</time>
      </trkpt>
      <trkpt lat="43.46728" lon="3.73359">
        <ele>136.25</ele>
        <time>2022-04-19T14:56:26Z</time>
      </trkpt>
      <trkpt lat="43.46724" lon="3.73371">
        <ele>134.09</ele>
        <time>2022-04-19T14:56:37Z</time>
      </trkpt>
      <trkpt lat="43.46716" lon="3.73377">
        <ele>135.88</ele>
        <time>2022-04-19T14:56:45Z</time>
      </trkpt>
      <trkpt lat="43.46708" lon="3.73384">
        <ele>135.61</ele>
        <time>2022-04-19T14:56:53Z</time>
      </trkpt>
      <trkpt lat="43.46701" lon="3.7339">
        <ele>135.96</ele>
        <time>2022-04-19T14:57:03Z</time>
      </trkpt>
      <trkpt lat="43.46693" lon="3.73398">
        <ele>134.72</ele>
        <time>2022-04-19T14:57:13Z</time>
      </trkpt>
      <trkpt lat="43.46687" lon="3.73407">
        <ele>135.96</ele>
        <time>2022-04-19T14:57:23Z</time>
      </trkpt>
      <trkpt lat="43.46679" lon="3.73415">
        <ele>135.03</ele>
        <time>2022-04-19T14:57:33Z</time>
      </trkpt>
      <trkpt lat="43.46672" lon="3.73423">
        <ele>134.27</ele>
        <time>2022-04-19T14:57:41Z</time>
      </trkpt>
      <trkpt lat="43.46665" lon="3.7343">
        <ele>134.51</ele>
        <time>2022-04-19T14:57:50Z</time>
      </trkpt>
      <trkpt lat="43.46657" lon="3.73438">
        <ele>133.67</ele>
        <time>2022-04-19T14:57:59Z</time>
      </trkpt>
      <trkpt lat="43.4665" lon="3.73446">
        <ele>132.87</ele>
        <time>2022-04-19T14:58:08Z</time>
      </trkpt>
      <trkpt lat="43.46641" lon="3.73452">
        <ele>132.18</ele>
        <time>2022-04-19T14:58:18Z</time>
      </trkpt>
      <trkpt lat="43.46633" lon="3.7346">
        <ele>132.13</ele>
        <time>2022-04-19T14:58:27Z</time>
      </trkpt>
      <trkpt lat="43.46625" lon="3.73469">
        <ele>131.53</ele>
        <time>2022-04-19T14:58:36Z</time>
      </trkpt>
      <trkpt lat="43.46617" lon="3.73474">
        <ele>131.05</ele>
        <time>2022-04-19T14:58:54Z</time>
      </trkpt>
      <trkpt lat="43.46609" lon="3.73481">
        <ele>130.3</ele>
        <time>2022-04-19T14:59:36Z</time>
      </trkpt>
      <trkpt lat="43.46599" lon="3.73484">
        <ele>130.37</ele>
        <time>2022-04-19T14:59:44Z</time>
      </trkpt>
      <trkpt lat="43.46589" lon="3.73487">
        <ele>129.51</ele>
        <time>2022-04-19T14:59:51Z</time>
      </trkpt>
      <trkpt lat="43.46581" lon="3.73491">
        <ele>129.56</ele>
        <time>2022-04-19T14:59:58Z</time>
      </trkpt>
      <trkpt lat="43.46572" lon="3.73497">
        <ele>128.55</ele>
        <time>2022-04-19T15:00:06Z</time>
      </trkpt>
      <trkpt lat="43.46562" lon="3.73499">
        <ele>128.11</ele>
        <time>2022-04-19T15:00:13Z</time>
      </trkpt>
      <trkpt lat="43.46553" lon="3.73503">
        <ele>127.83</ele>
        <time>2022-04-19T15:00:20Z</time>
      </trkpt>
      <trkpt lat="43.46543" lon="3.73506">
        <ele>126.99</ele>
        <time>2022-04-19T15:00:28Z</time>
      </trkpt>
      <trkpt lat="43.46534" lon="3.7351">
        <ele>125.79</ele>
        <time>2022-04-19T15:00:36Z</time>
      </trkpt>
      <trkpt lat="43.46524" lon="3.73512">
        <ele>124.25</ele>
        <time>2022-04-19T15:00:45Z</time>
      </trkpt>
      <trkpt lat="43.46515" lon="3.7351">
        <ele>123.36</ele>
        <time>2022-04-19T15:00:54Z</time>
      </trkpt>
      <trkpt lat="43.46505" lon="3.73513">
        <ele>123.25</ele>
        <time>2022-04-19T15:01:02Z</time>
      </trkpt>
      <trkpt lat="43.46496" lon="3.73515">
        <ele>123.48</ele>
        <time>2022-04-19T15:01:10Z</time>
      </trkpt>
      <trkpt lat="43.46486" lon="3.73517">
        <ele>122.84</ele>
        <time>2022-04-19T15:01:19Z</time>
      </trkpt>
      <trkpt lat="43.46477" lon="3.73519">
        <ele>121.91</ele>
        <time>2022-04-19T15:01:27Z</time>
      </trkpt>
      <trkpt lat="43.46467" lon="3.73521">
        <ele>121.77</ele>
        <time>2022-04-19T15:01:36Z</time>
      </trkpt>
      <trkpt lat="43.46458" lon="3.73523">
        <ele>121.14</ele>
        <time>2022-04-19T15:01:44Z</time>
      </trkpt>
      <trkpt lat="43.46448" lon="3.73526">
        <ele>120.88</ele>
        <time>2022-04-19T15:01:52Z</time>
      </trkpt>
      <trkpt lat="43.46439" lon="3.73528">
        <ele>120.52</ele>
        <time>2022-04-19T15:02:00Z</time>
      </trkpt>
      <trkpt lat="43.4643" lon="3.7353">
        <ele>121.05</ele>
        <time>2022-04-19T15:02:08Z</time>
      </trkpt>
      <trkpt lat="43.46421" lon="3.73532">
        <ele>120.89</ele>
        <time>2022-04-19T15:02:16Z</time>
      </trkpt>
      <trkpt lat="43.46411" lon="3.73536">
        <ele>119.68</ele>
        <time>2022-04-19T15:02:24Z</time>
      </trkpt>
      <trkpt lat="43.46401" lon="3.73538">
        <ele>119.56</ele>
        <time>2022-04-19T15:02:32Z</time>
      </trkpt>
      <trkpt lat="43.46392" lon="3.73539">
        <ele>118.33</ele>
        <time>2022-04-19T15:02:48Z</time>
      </trkpt>
      <trkpt lat="43.46383" lon="3.73545">
        <ele>117.36</ele>
        <time>2022-04-19T15:02:57Z</time>
      </trkpt>
      <trkpt lat="43.46376" lon="3.73552">
        <ele>116.4</ele>
        <time>2022-04-19T15:03:07Z</time>
      </trkpt>
      <trkpt lat="43.4637" lon="3.73562">
        <ele>116.37</ele>
        <time>2022-04-19T15:03:14Z</time>
      </trkpt>
      <trkpt lat="43.46364" lon="3.73572">
        <ele>116.14</ele>
        <time>2022-04-19T15:03:21Z</time>
      </trkpt>
      <trkpt lat="43.46358" lon="3.73583">
        <ele>116.03</ele>
        <time>2022-04-19T15:03:29Z</time>
      </trkpt>
      <trkpt lat="43.46352" lon="3.73593">
        <ele>116.42</ele>
        <time>2022-04-19T15:03:37Z</time>
      </trkpt>
      <trkpt lat="43.46345" lon="3.73603">
        <ele>117.36</ele>
        <time>2022-04-19T15:03:45Z</time>
      </trkpt>
      <trkpt lat="43.46338" lon="3.73612">
        <ele>116.88</ele>
        <time>2022-04-19T15:03:52Z</time>
      </trkpt>
      <trkpt lat="43.4633" lon="3.7362">
        <ele>116.72</ele>
        <time>2022-04-19T15:04:00Z</time>
      </trkpt>
      <trkpt lat="43.46321" lon="3.73627">
        <ele>116.18</ele>
        <time>2022-04-19T15:04:08Z</time>
      </trkpt>
      <trkpt lat="43.46312" lon="3.73631">
        <ele>115.34</ele>
        <time>2022-04-19T15:04:16Z</time>
      </trkpt>
      <trkpt lat="43.46302" lon="3.73632">
        <ele>114.38</ele>
        <time>2022-04-19T15:04:24Z</time>
      </trkpt>
      <trkpt lat="43.46293" lon="3.73632">
        <ele>113.83</ele>
        <time>2022-04-19T15:04:32Z</time>
      </trkpt>
      <trkpt lat="43.46284" lon="3.73632">
        <ele>113.26</ele>
        <time>2022-04-19T15:04:40Z</time>
      </trkpt>
      <trkpt lat="43.46274" lon="3.73629">
        <ele>112.66</ele>
        <time>2022-04-19T15:04:49Z</time>
      </trkpt>
      <trkpt lat="43.46265" lon="3.73625">
        <ele>112.64</ele>
        <time>2022-04-19T15:05:03Z</time>
      </trkpt>
      <trkpt lat="43.46256" lon="3.73629">
        <ele>114.12</ele>
        <time>2022-04-19T15:05:10Z</time>
      </trkpt>
      <trkpt lat="43.46247" lon="3.73633">
        <ele>114.6</ele>
        <time>2022-04-19T15:05:17Z</time>
      </trkpt>
      <trkpt lat="43.46239" lon="3.7364">
        <ele>114.5</ele>
        <time>2022-04-19T15:05:24Z</time>
      </trkpt>
      <trkpt lat="43.46231" lon="3.73648">
        <ele>113.33</ele>
        <time>2022-04-19T15:05:32Z</time>
      </trkpt>
      <trkpt lat="43.46224" lon="3.73657">
        <ele>113.77</ele>
        <time>2022-04-19T15:05:40Z</time>
      </trkpt>
      <trkpt lat="43.46216" lon="3.73665">
        <ele>113.62</ele>
        <time>2022-04-19T15:05:48Z</time>
      </trkpt>
      <trkpt lat="43.46209" lon="3.73672">
        <ele>113.1</ele>
        <time>2022-04-19T15:05:56Z</time>
      </trkpt>
      <trkpt lat="43.46201" lon="3.73679">
        <ele>112.82</ele>
        <time>2022-04-19T15:06:04Z</time>
      </trkpt>
      <trkpt lat="43.46192" lon="3.73686">
        <ele>111.74</ele>
        <time>2022-04-19T15:06:12Z</time>
      </trkpt>
      <trkpt lat="43.46184" lon="3.73692">
        <ele>111.07</ele>
        <time>2022-04-19T15:06:19Z</time>
      </trkpt>
      <trkpt lat="43.46176" lon="3.73698">
        <ele>110.44</ele>
        <time>2022-04-19T15:06:27Z</time>
      </trkpt>
      <trkpt lat="43.46168" lon="3.73705">
        <ele>110.13</ele>
        <time>2022-04-19T15:06:35Z</time>
      </trkpt>
      <trkpt lat="43.4616" lon="3.73712">
        <ele>109.77</ele>
        <time>2022-04-19T15:06:43Z</time>
      </trkpt>
      <trkpt lat="43.46151" lon="3.73719">
        <ele>108.75</ele>
        <time>2022-04-19T15:06:51Z</time>
      </trkpt>
      <trkpt lat="43.46142" lon="3.73724">
        <ele>108.7</ele>
        <time>2022-04-19T15:06:59Z</time>
      </trkpt>
      <trkpt lat="43.46133" lon="3.7373">
        <ele>108.13</ele>
        <time>2022-04-19T15:07:07Z</time>
      </trkpt>
      <trkpt lat="43.46125" lon="3.73736">
        <ele>108.14</ele>
        <time>2022-04-19T15:07:15Z</time>
      </trkpt>
      <trkpt lat="43.46116" lon="3.73741">
        <ele>107.86</ele>
        <time>2022-04-19T15:07:23Z</time>
      </trkpt>
      <trkpt lat="43.46107" lon="3.73746">
        <ele>108.04</ele>
        <time>2022-04-19T15:07:31Z</time>
      </trkpt>
      <trkpt lat="43.46098" lon="3.7375">
        <ele>107.82</ele>
        <time>2022-04-19T15:07:38Z</time>
      </trkpt>
      <trkpt lat="43.46089" lon="3.73753">
        <ele>108.3</ele>
        <time>2022-04-19T15:07:45Z</time>
      </trkpt>
      <trkpt lat="43.4608" lon="3.73756">
        <ele>107.62</ele>
        <time>2022-04-19T15:07:52Z</time>
      </trkpt>
      <trkpt lat="43.4607" lon="3.73759">
        <ele>107.78</ele>
        <time>2022-04-19T15:08:00Z</time>
      </trkpt>
      <trkpt lat="43.46061" lon="3.73761">
        <ele>108.05</ele>
        <time>2022-04-19T15:08:07Z</time>
      </trkpt>
      <trkpt lat="43.46052" lon="3.73764">
        <ele>107.76</ele>
        <time>2022-04-19T15:08:14Z</time>
      </trkpt>
      <trkpt lat="43.46043" lon="3.73767">
        <ele>107.77</ele>
        <time>2022-04-19T15:08:21Z</time>
      </trkpt>
      <trkpt lat="43.46034" lon="3.7377">
        <ele>107.26</ele>
        <time>2022-04-19T15:08:28Z</time>
      </trkpt>
      <trkpt lat="43.46025" lon="3.73773">
        <ele>106.48</ele>
        <time>2022-04-19T15:08:35Z</time>
      </trkpt>
      <trkpt lat="43.46016" lon="3.73776">
        <ele>105.65</ele>
        <time>2022-04-19T15:08:42Z</time>
      </trkpt>
      <trkpt lat="43.46006" lon="3.73779">
        <ele>105.72</ele>
        <time>2022-04-19T15:08:50Z</time>
      </trkpt>
      <trkpt lat="43.45998" lon="3.73783">
        <ele>105.83</ele>
        <time>2022-04-19T15:08:57Z</time>
      </trkpt>
      <trkpt lat="43.45988" lon="3.73786">
        <ele>105.36</ele>
        <time>2022-04-19T15:09:04Z</time>
      </trkpt>
      <trkpt lat="43.45979" lon="3.73791">
        <ele>105.89</ele>
        <time>2022-04-19T15:09:12Z</time>
      </trkpt>
      <trkpt lat="43.4597" lon="3.73795">
        <ele>105.67</ele>
        <time>2022-04-19T15:09:19Z</time>
      </trkpt>
      <trkpt lat="43.45962" lon="3.738">
        <ele>106.26</ele>
        <time>2022-04-19T15:09:26Z</time>
      </trkpt>
      <trkpt lat="43.45953" lon="3.73805">
        <ele>106.79</ele>
        <time>2022-04-19T15:09:33Z</time>
      </trkpt>
      <trkpt lat="43.45944" lon="3.7381">
        <ele>107.76</ele>
        <time>2022-04-19T15:09:41Z</time>
      </trkpt>
      <trkpt lat="43.45936" lon="3.73818">
        <ele>107.77</ele>
        <time>2022-04-19T15:09:49Z</time>
      </trkpt>
      <trkpt lat="43.45927" lon="3.73822">
        <ele>107.24</ele>
        <time>2022-04-19T15:09:57Z</time>
      </trkpt>
      <trkpt lat="43.45918" lon="3.73825">
        <ele>106.5</ele>
        <time>2022-04-19T15:10:04Z</time>
      </trkpt>
      <trkpt lat="43.45909" lon="3.7383">
        <ele>106.43</ele>
        <time>2022-04-19T15:10:12Z</time>
      </trkpt>
      <trkpt lat="43.45902" lon="3.73838">
        <ele>107.91</ele>
        <time>2022-04-19T15:10:19Z</time>
      </trkpt>
      <trkpt lat="43.45892" lon="3.73842">
        <ele>109.14</ele>
        <time>2022-04-19T15:10:27Z</time>
      </trkpt>
      <trkpt lat="43.45882" lon="3.73846">
        <ele>110.03</ele>
        <time>2022-04-19T15:10:35Z</time>
      </trkpt>
      <trkpt lat="43.45873" lon="3.7385">
        <ele>110.26</ele>
        <time>2022-04-19T15:10:43Z</time>
      </trkpt>
      <trkpt lat="43.45865" lon="3.73854">
        <ele>110.77</ele>
        <time>2022-04-19T15:10:50Z</time>
      </trkpt>
      <trkpt lat="43.45855" lon="3.73858">
        <ele>110.02</ele>
        <time>2022-04-19T15:10:58Z</time>
      </trkpt>
      <trkpt lat="43.45845" lon="3.7386">
        <ele>109.38</ele>
        <time>2022-04-19T15:11:06Z</time>
      </trkpt>
      <trkpt lat="43.45835" lon="3.73861">
        <ele>109.03</ele>
        <time>2022-04-19T15:11:14Z</time>
      </trkpt>
      <trkpt lat="43.45825" lon="3.73862">
        <ele>109.61</ele>
        <time>2022-04-19T15:11:22Z</time>
      </trkpt>
      <trkpt lat="43.45816" lon="3.73864">
        <ele>108.97</ele>
        <time>2022-04-19T15:11:29Z</time>
      </trkpt>
      <trkpt lat="43.45806" lon="3.73866">
        <ele>109.18</ele>
        <time>2022-04-19T15:11:37Z</time>
      </trkpt>
      <trkpt lat="43.45797" lon="3.73869">
        <ele>108.76</ele>
        <time>2022-04-19T15:11:44Z</time>
      </trkpt>
      <trkpt lat="43.45788" lon="3.73872">
        <ele>107.85</ele>
        <time>2022-04-19T15:11:51Z</time>
      </trkpt>
      <trkpt lat="43.45779" lon="3.73874">
        <ele>107.34</ele>
        <time>2022-04-19T15:11:58Z</time>
      </trkpt>
      <trkpt lat="43.4577" lon="3.73877">
        <ele>107.19</ele>
        <time>2022-04-19T15:12:05Z</time>
      </trkpt>
      <trkpt lat="43.45761" lon="3.73882">
        <ele>106.42</ele>
        <time>2022-04-19T15:12:12Z</time>
      </trkpt>
      <trkpt lat="43.45753" lon="3.73889">
        <ele>105.4</ele>
        <time>2022-04-19T15:12:19Z</time>
      </trkpt>
      <trkpt lat="43.45746" lon="3.73896">
        <ele>104.86</ele>
        <time>2022-04-19T15:12:26Z</time>
      </trkpt>
      <trkpt lat="43.45738" lon="3.73903">
        <ele>103.47</ele>
        <time>2022-04-19T15:12:33Z</time>
      </trkpt>
      <trkpt lat="43.4573" lon="3.7391">
        <ele>103.07</ele>
        <time>2022-04-19T15:12:40Z</time>
      </trkpt>
      <trkpt lat="43.45722" lon="3.73918">
        <ele>103.83</ele>
        <time>2022-04-19T15:12:48Z</time>
      </trkpt>
      <trkpt lat="43.45715" lon="3.73925">
        <ele>103.45</ele>
        <time>2022-04-19T15:12:55Z</time>
      </trkpt>
      <trkpt lat="43.45707" lon="3.73933">
        <ele>103.09</ele>
        <time>2022-04-19T15:13:02Z</time>
      </trkpt>
      <trkpt lat="43.45698" lon="3.7394">
        <ele>102.73</ele>
        <time>2022-04-19T15:13:10Z</time>
      </trkpt>
      <trkpt lat="43.45691" lon="3.73946">
        <ele>102.39</ele>
        <time>2022-04-19T15:13:17Z</time>
      </trkpt>
      <trkpt lat="43.45683" lon="3.73953">
        <ele>102.84</ele>
        <time>2022-04-19T15:13:25Z</time>
      </trkpt>
      <trkpt lat="43.45675" lon="3.73963">
        <ele>101.75</ele>
        <time>2022-04-19T15:13:33Z</time>
      </trkpt>
      <trkpt lat="43.45668" lon="3.73972">
        <ele>100.47</ele>
        <time>2022-04-19T15:13:41Z</time>
      </trkpt>
      <trkpt lat="43.4566" lon="3.73982">
        <ele>99.69</ele>
        <time>2022-04-19T15:13:49Z</time>
      </trkpt>
      <trkpt lat="43.45653" lon="3.73991">
        <ele>99.3</ele>
        <time>2022-04-19T15:13:57Z</time>
      </trkpt>
      <trkpt lat="43.45645" lon="3.74">
        <ele>98.27</ele>
        <time>2022-04-19T15:14:05Z</time>
      </trkpt>
      <trkpt lat="43.45637" lon="3.74008">
        <ele>98.72</ele>
        <time>2022-04-19T15:14:13Z</time>
      </trkpt>
      <trkpt lat="43.45629" lon="3.74013">
        <ele>96.26</ele>
        <time>2022-04-19T15:14:20Z</time>
      </trkpt>
      <trkpt lat="43.4562" lon="3.74018">
        <ele>96.16</ele>
        <time>2022-04-19T15:14:28Z</time>
      </trkpt>
      <trkpt lat="43.45611" lon="3.74022">
        <ele>95.59</ele>
        <time>2022-04-19T15:14:36Z</time>
      </trkpt>
      <trkpt lat="43.45603" lon="3.7403">
        <ele>93.21</ele>
        <time>2022-04-19T15:14:44Z</time>
      </trkpt>
      <trkpt lat="43.45593" lon="3.74034">
        <ele>94.76</ele>
        <time>2022-04-19T15:14:52Z</time>
      </trkpt>
      <trkpt lat="43.45585" lon="3.74041">
        <ele>94.89</ele>
        <time>2022-04-19T15:15:00Z</time>
      </trkpt>
      <trkpt lat="43.45576" lon="3.74049">
        <ele>95.52</ele>
        <time>2022-04-19T15:15:08Z</time>
      </trkpt>
      <trkpt lat="43.45568" lon="3.74056">
        <ele>95.23</ele>
        <time>2022-04-19T15:15:15Z</time>
      </trkpt>
      <trkpt lat="43.4556" lon="3.74064">
        <ele>95.25</ele>
        <time>2022-04-19T15:15:23Z</time>
      </trkpt>
      <trkpt lat="43.45552" lon="3.74073">
        <ele>95.6</ele>
        <time>2022-04-19T15:15:31Z</time>
      </trkpt>
      <trkpt lat="43.45547" lon="3.74084">
        <ele>94</ele>
        <time>2022-04-19T15:15:37Z</time>
      </trkpt>
      <trkpt lat="43.45539" lon="3.74089">
        <ele>94.04</ele>
        <time>2022-04-19T15:15:44Z</time>
      </trkpt>
      <trkpt lat="43.45532" lon="3.74097">
        <ele>93.03</ele>
        <time>2022-04-19T15:15:51Z</time>
      </trkpt>
      <trkpt lat="43.45525" lon="3.74106">
        <ele>93.51</ele>
        <time>2022-04-19T15:16:00Z</time>
      </trkpt>
      <trkpt lat="43.45518" lon="3.74116">
        <ele>92.35</ele>
        <time>2022-04-19T15:16:09Z</time>
      </trkpt>
      <trkpt lat="43.45511" lon="3.74127">
        <ele>91.67</ele>
        <time>2022-04-19T15:16:17Z</time>
      </trkpt>
      <trkpt lat="43.45505" lon="3.74137">
        <ele>91.08</ele>
        <time>2022-04-19T15:16:24Z</time>
      </trkpt>
      <trkpt lat="43.45499" lon="3.74147">
        <ele>90.16</ele>
        <time>2022-04-19T15:16:32Z</time>
      </trkpt>
      <trkpt lat="43.45492" lon="3.74156">
        <ele>90.23</ele>
        <time>2022-04-19T15:16:40Z</time>
      </trkpt>
      <trkpt lat="43.45483" lon="3.74163">
        <ele>89.84</ele>
        <time>2022-04-19T15:16:48Z</time>
      </trkpt>
      <trkpt lat="43.45475" lon="3.74171">
        <ele>90.08</ele>
        <time>2022-04-19T15:16:56Z</time>
      </trkpt>
      <trkpt lat="43.45465" lon="3.74175">
        <ele>88.32</ele>
        <time>2022-04-19T15:17:04Z</time>
      </trkpt>
      <trkpt lat="43.45458" lon="3.74183">
        <ele>87.83</ele>
        <time>2022-04-19T15:17:11Z</time>
      </trkpt>
      <trkpt lat="43.4545" lon="3.7419">
        <ele>88.24</ele>
        <time>2022-04-19T15:17:18Z</time>
      </trkpt>
      <trkpt lat="43.45442" lon="3.74197">
        <ele>87.12</ele>
        <time>2022-04-19T15:17:25Z</time>
      </trkpt>
      <trkpt lat="43.45434" lon="3.74203">
        <ele>86.99</ele>
        <time>2022-04-19T15:17:32Z</time>
      </trkpt>
      <trkpt lat="43.45431" lon="3.74215">
        <ele>87.27</ele>
        <time>2022-04-19T15:17:46Z</time>
      </trkpt>
      <trkpt lat="43.45422" lon="3.74222">
        <ele>86.91</ele>
        <time>2022-04-19T15:17:53Z</time>
      </trkpt>
      <trkpt lat="43.45415" lon="3.74231">
        <ele>85.73</ele>
        <time>2022-04-19T15:18:00Z</time>
      </trkpt>
      <trkpt lat="43.45407" lon="3.7424">
        <ele>84.67</ele>
        <time>2022-04-19T15:18:08Z</time>
      </trkpt>
      <trkpt lat="43.45402" lon="3.74251">
        <ele>84.42</ele>
        <time>2022-04-19T15:18:16Z</time>
      </trkpt>
      <trkpt lat="43.45397" lon="3.74262">
        <ele>84.38</ele>
        <time>2022-04-19T15:18:24Z</time>
      </trkpt>
      <trkpt lat="43.45394" lon="3.74276">
        <ele>83.81</ele>
        <time>2022-04-19T15:18:32Z</time>
      </trkpt>
      <trkpt lat="43.45389" lon="3.74287">
        <ele>83.73</ele>
        <time>2022-04-19T15:18:39Z</time>
      </trkpt>
      <trkpt lat="43.45387" lon="3.743">
        <ele>82.83</ele>
        <time>2022-04-19T15:18:48Z</time>
      </trkpt>
      <trkpt lat="43.45383" lon="3.74312">
        <ele>81.4</ele>
        <time>2022-04-19T15:18:55Z</time>
      </trkpt>
      <trkpt lat="43.45379" lon="3.74324">
        <ele>80.96</ele>
        <time>2022-04-19T15:19:03Z</time>
      </trkpt>
      <trkpt lat="43.45374" lon="3.74336">
        <ele>81.08</ele>
        <time>2022-04-19T15:19:11Z</time>
      </trkpt>
      <trkpt lat="43.45369" lon="3.74348">
        <ele>80.44</ele>
        <time>2022-04-19T15:19:19Z</time>
      </trkpt>
      <trkpt lat="43.45364" lon="3.74358">
        <ele>79.74</ele>
        <time>2022-04-19T15:19:26Z</time>
      </trkpt>
      <trkpt lat="43.45357" lon="3.74367">
        <ele>79.01</ele>
        <time>2022-04-19T15:19:34Z</time>
      </trkpt>
      <trkpt lat="43.4535" lon="3.74376">
        <ele>79.35</ele>
        <time>2022-04-19T15:19:42Z</time>
      </trkpt>
      <trkpt lat="43.45342" lon="3.74385">
        <ele>79.45</ele>
        <time>2022-04-19T15:19:50Z</time>
      </trkpt>
      <trkpt lat="43.45335" lon="3.74394">
        <ele>79.95</ele>
        <time>2022-04-19T15:19:58Z</time>
      </trkpt>
      <trkpt lat="43.45328" lon="3.74402">
        <ele>79.16</ele>
        <time>2022-04-19T15:20:07Z</time>
      </trkpt>
      <trkpt lat="43.45321" lon="3.74413">
        <ele>78.88</ele>
        <time>2022-04-19T15:20:17Z</time>
      </trkpt>
      <trkpt lat="43.45316" lon="3.74424">
        <ele>78.44</ele>
        <time>2022-04-19T15:20:25Z</time>
      </trkpt>
      <trkpt lat="43.4531" lon="3.74433">
        <ele>77.15</ele>
        <time>2022-04-19T15:20:32Z</time>
      </trkpt>
      <trkpt lat="43.45303" lon="3.74443">
        <ele>76.28</ele>
        <time>2022-04-19T15:20:40Z</time>
      </trkpt>
      <trkpt lat="43.45296" lon="3.74451">
        <ele>75.76</ele>
        <time>2022-04-19T15:20:48Z</time>
      </trkpt>
      <trkpt lat="43.45288" lon="3.7446">
        <ele>75.17</ele>
        <time>2022-04-19T15:20:56Z</time>
      </trkpt>
      <trkpt lat="43.4528" lon="3.74468">
        <ele>74.9</ele>
        <time>2022-04-19T15:21:04Z</time>
      </trkpt>
      <trkpt lat="43.45274" lon="3.74478">
        <ele>73.61</ele>
        <time>2022-04-19T15:21:12Z</time>
      </trkpt>
      <trkpt lat="43.45268" lon="3.74488">
        <ele>72.54</ele>
        <time>2022-04-19T15:21:20Z</time>
      </trkpt>
      <trkpt lat="43.45262" lon="3.74498">
        <ele>71.22</ele>
        <time>2022-04-19T15:21:28Z</time>
      </trkpt>
      <trkpt lat="43.45256" lon="3.74508">
        <ele>70.73</ele>
        <time>2022-04-19T15:21:36Z</time>
      </trkpt>
      <trkpt lat="43.4525" lon="3.74517">
        <ele>69.48</ele>
        <time>2022-04-19T15:21:44Z</time>
      </trkpt>
      <trkpt lat="43.45243" lon="3.74527">
        <ele>69.03</ele>
        <time>2022-04-19T15:21:52Z</time>
      </trkpt>
      <trkpt lat="43.45238" lon="3.74537">
        <ele>68.46</ele>
        <time>2022-04-19T15:22:00Z</time>
      </trkpt>
      <trkpt lat="43.45233" lon="3.74548">
        <ele>67.26</ele>
        <time>2022-04-19T15:22:08Z</time>
      </trkpt>
      <trkpt lat="43.45228" lon="3.74559">
        <ele>66.3</ele>
        <time>2022-04-19T15:22:17Z</time>
      </trkpt>
      <trkpt lat="43.45223" lon="3.74571">
        <ele>64.95</ele>
        <time>2022-04-19T15:22:25Z</time>
      </trkpt>
      <trkpt lat="43.45218" lon="3.74582">
        <ele>63.94</ele>
        <time>2022-04-19T15:22:33Z</time>
      </trkpt>
      <trkpt lat="43.45214" lon="3.74593">
        <ele>63.53</ele>
        <time>2022-04-19T15:22:41Z</time>
      </trkpt>
      <trkpt lat="43.45209" lon="3.74606">
        <ele>62.8</ele>
        <time>2022-04-19T15:22:49Z</time>
      </trkpt>
      <trkpt lat="43.45206" lon="3.74618">
        <ele>62.95</ele>
        <time>2022-04-19T15:22:57Z</time>
      </trkpt>
      <trkpt lat="43.452" lon="3.74629">
        <ele>62.36</ele>
        <time>2022-04-19T15:23:05Z</time>
      </trkpt>
      <trkpt lat="43.45196" lon="3.74641">
        <ele>61.92</ele>
        <time>2022-04-19T15:23:13Z</time>
      </trkpt>
      <trkpt lat="43.45192" lon="3.74653">
        <ele>60.94</ele>
        <time>2022-04-19T15:23:21Z</time>
      </trkpt>
      <trkpt lat="43.45188" lon="3.74665">
        <ele>61.14</ele>
        <time>2022-04-19T15:23:29Z</time>
      </trkpt>
      <trkpt lat="43.45188" lon="3.74678">
        <ele>61.16</ele>
        <time>2022-04-19T15:23:45Z</time>
      </trkpt>
      <trkpt lat="43.45182" lon="3.74689">
        <ele>61.45</ele>
        <time>2022-04-19T15:23:53Z</time>
      </trkpt>
      <trkpt lat="43.45175" lon="3.747">
        <ele>62.8</ele>
        <time>2022-04-19T15:24:01Z</time>
      </trkpt>
      <trkpt lat="43.45169" lon="3.74711">
        <ele>62.31</ele>
        <time>2022-04-19T15:24:08Z</time>
      </trkpt>
      <trkpt lat="43.45162" lon="3.74721">
        <ele>61.58</ele>
        <time>2022-04-19T15:24:14Z</time>
      </trkpt>
      <trkpt lat="43.45156" lon="3.74732">
        <ele>60.17</ele>
        <time>2022-04-19T15:24:21Z</time>
      </trkpt>
      <trkpt lat="43.45151" lon="3.74742">
        <ele>59.45</ele>
        <time>2022-04-19T15:24:28Z</time>
      </trkpt>
      <trkpt lat="43.45146" lon="3.74754">
        <ele>59.19</ele>
        <time>2022-04-19T15:24:36Z</time>
      </trkpt>
      <trkpt lat="43.45137" lon="3.74762">
        <ele>59.77</ele>
        <time>2022-04-19T15:24:44Z</time>
      </trkpt>
      <trkpt lat="43.45131" lon="3.74771">
        <ele>60.2</ele>
        <time>2022-04-19T15:24:51Z</time>
      </trkpt>
      <trkpt lat="43.45124" lon="3.74779">
        <ele>60.85</ele>
        <time>2022-04-19T15:24:58Z</time>
      </trkpt>
      <trkpt lat="43.45117" lon="3.74789">
        <ele>60.22</ele>
        <time>2022-04-19T15:25:06Z</time>
      </trkpt>
      <trkpt lat="43.4511" lon="3.74798">
        <ele>59.83</ele>
        <time>2022-04-19T15:25:13Z</time>
      </trkpt>
      <trkpt lat="43.45105" lon="3.74809">
        <ele>58.54</ele>
        <time>2022-04-19T15:25:21Z</time>
      </trkpt>
      <trkpt lat="43.451" lon="3.7482">
        <ele>59.07</ele>
        <time>2022-04-19T15:25:29Z</time>
      </trkpt>
      <trkpt lat="43.45095" lon="3.74831">
        <ele>59.85</ele>
        <time>2022-04-19T15:25:37Z</time>
      </trkpt>
      <trkpt lat="43.45086" lon="3.74835">
        <ele>61.34</ele>
        <time>2022-04-19T15:26:21Z</time>
      </trkpt>
      <trkpt lat="43.45087" lon="3.74848">
        <ele>60.18</ele>
        <time>2022-04-19T15:26:38Z</time>
      </trkpt>
      <trkpt lat="43.45083" lon="3.74861">
        <ele>59.67</ele>
        <time>2022-04-19T15:26:48Z</time>
      </trkpt>
      <trkpt lat="43.45079" lon="3.74873">
        <ele>59.61</ele>
        <time>2022-04-19T15:26:57Z</time>
      </trkpt>
      <trkpt lat="43.45072" lon="3.74881">
        <ele>57.99</ele>
        <time>2022-04-19T15:27:05Z</time>
      </trkpt>
      <trkpt lat="43.45066" lon="3.7489">
        <ele>57.8</ele>
        <time>2022-04-19T15:27:13Z</time>
      </trkpt>
      <trkpt lat="43.45058" lon="3.74896">
        <ele>56.71</ele>
        <time>2022-04-19T15:27:21Z</time>
      </trkpt>
      <trkpt lat="43.4505" lon="3.74906">
        <ele>57.36</ele>
        <time>2022-04-19T15:27:30Z</time>
      </trkpt>
      <trkpt lat="43.45044" lon="3.74915">
        <ele>56.26</ele>
        <time>2022-04-19T15:27:38Z</time>
      </trkpt>
      <trkpt lat="43.45036" lon="3.74925">
        <ele>56.02</ele>
        <time>2022-04-19T15:27:46Z</time>
      </trkpt>
      <trkpt lat="43.45028" lon="3.74934">
        <ele>56.74</ele>
        <time>2022-04-19T15:27:54Z</time>
      </trkpt>
      <trkpt lat="43.45023" lon="3.74944">
        <ele>57.42</ele>
        <time>2022-04-19T15:28:01Z</time>
      </trkpt>
      <trkpt lat="43.45016" lon="3.74952">
        <ele>56.02</ele>
        <time>2022-04-19T15:28:09Z</time>
      </trkpt>
      <trkpt lat="43.45009" lon="3.74963">
        <ele>55.23</ele>
        <time>2022-04-19T15:28:18Z</time>
      </trkpt>
      <trkpt lat="43.45001" lon="3.74972">
        <ele>53.56</ele>
        <time>2022-04-19T15:28:27Z</time>
      </trkpt>
      <trkpt lat="43.44996" lon="3.74982">
        <ele>53.52</ele>
        <time>2022-04-19T15:28:35Z</time>
      </trkpt>
      <trkpt lat="43.44989" lon="3.74991">
        <ele>53.23</ele>
        <time>2022-04-19T15:28:43Z</time>
      </trkpt>
      <trkpt lat="43.44983" lon="3.75">
        <ele>54.46</ele>
        <time>2022-04-19T15:28:51Z</time>
      </trkpt>
      <trkpt lat="43.44977" lon="3.7501">
        <ele>52.9</ele>
        <time>2022-04-19T15:28:59Z</time>
      </trkpt>
      <trkpt lat="43.44971" lon="3.7502">
        <ele>53.18</ele>
        <time>2022-04-19T15:29:07Z</time>
      </trkpt>
      <trkpt lat="43.44964" lon="3.75029">
        <ele>52.02</ele>
        <time>2022-04-19T15:29:16Z</time>
      </trkpt>
      <trkpt lat="43.44956" lon="3.75039">
        <ele>52.12</ele>
        <time>2022-04-19T15:29:25Z</time>
      </trkpt>
      <trkpt lat="43.44949" lon="3.75046">
        <ele>51.6</ele>
        <time>2022-04-19T15:29:32Z</time>
      </trkpt>
      <trkpt lat="43.44943" lon="3.75057">
        <ele>53.17</ele>
        <time>2022-04-19T15:29:40Z</time>
      </trkpt>
      <trkpt lat="43.44936" lon="3.75066">
        <ele>54.23</ele>
        <time>2022-04-19T15:29:48Z</time>
      </trkpt>
      <trkpt lat="43.4493" lon="3.75076">
        <ele>52.93</ele>
        <time>2022-04-19T15:29:56Z</time>
      </trkpt>
      <trkpt lat="43.44924" lon="3.75087">
        <ele>52.43</ele>
        <time>2022-04-19T15:30:04Z</time>
      </trkpt>
      <trkpt lat="43.44917" lon="3.75097">
        <ele>51.28</ele>
        <time>2022-04-19T15:30:12Z</time>
      </trkpt>
      <trkpt lat="43.44912" lon="3.75108">
        <ele>51.01</ele>
        <time>2022-04-19T15:30:21Z</time>
      </trkpt>
      <trkpt lat="43.44906" lon="3.75119">
        <ele>52.22</ele>
        <time>2022-04-19T15:30:30Z</time>
      </trkpt>
    </trkseg>
  </trk>
</gpx>